Observation data for Palo Duro Canyon State Park Floor on 01/19/2019      Previous  Date  Next       Current Mesonet Observations  Soil Data  Daily Summary Page  Observations in Plain Language
KPD2 190601Z 31016G22KT 01/M01 A3006 RMK A01 T00121011  RH  084%=      5-min Rain = 0
KPD2 190602Z 34013G18KT 01/M01 A3006 RMK A01 T00121012  RH  084%=      5-min Rain = 0
KPD2 190603Z 32014G19KT 01/M01 A3006 RMK A01 T00131012  RH  084%=      5-min Rain = 0
KPD2 190604Z 32013G20KT 01/M01 A3006 RMK A01 T00131012  RH  084%=      5-min Rain = 0
KPD2 190605Z 32015G22KT 01/M01 A3006 RMK A01 T00131012  RH  083%=      5-min Rain = 0
KPD2 190606Z 32015KT 01/M01 A3006 RMK A01 T00131013  RH  083%=      5-min Rain = 0
KPD2 190607Z 33015G21KT 01/M01 A3006 RMK A01 T00141013  RH  082%=      5-min Rain = 0
KPD2 190608Z 31014G19KT 01/M01 A3006 RMK A01 T00141014  RH  082%=      5-min Rain = 0
KPD2 190609Z 32014G22KT 01/M01 A3007 RMK A01 T00141014  RH  081%=      5-min Rain = 0
KPD2 190610Z 33020G26KT 01/M02 A3007 RMK A01 T00141015  RH  081%=      5-min Rain = 0
KPD2 190611Z 31017G22KT 02/M02 A3007 RMK A01 T00151016  RH  080%=      5-min Rain = 0
KPD2 190612Z 32014G20KT 02/M02 A3007 RMK A01 T00151017  RH  079%=      5-min Rain = 0
KPD2 190613Z 32020G26KT 02/M02 A3007 RMK A01 T00151017  RH  079%=      5-min Rain = 0
KPD2 190614Z 31018KT 02/M02 A3007 RMK A01 T00161017  RH  079%=      5-min Rain = 0
KPD2 190615Z 32020G25KT 02/M02 A3007 RMK A01 T00161017  RH  079%=      5-min Rain = 0
KPD2 190616Z 33015KT 02/M02 A3007 RMK A01 T00161018  RH  078%=      5-min Rain = 0
KPD2 190617Z 32015G20KT 02/M02 A3007 RMK A01 T00161017  RH  079%=      5-min Rain = 0
KPD2 190618Z 33013KT 02/M02 A3007 RMK A01 T00161017  RH  079%=      5-min Rain = 0
KPD2 190619Z 33014G20KT 02/M02 A3007 RMK A01 T00161017  RH  079%=      5-min Rain = 0
KPD2 190620Z 33016KT 02/M02 A3007 RMK A01 T00161017  RH  079%=      5-min Rain = 0
KPD2 190621Z 32013KT 02/M02 A3007 RMK A01 T00161016  RH  079%=      5-min Rain = 0
KPD2 190622Z 32013KT 02/M02 A3007 RMK A01 T00161017  RH  079%=      5-min Rain = 0
KPD2 190623Z 32014G22KT 02/M02 A3008 RMK A01 T00161016  RH  079%=      5-min Rain = 0
KPD2 190624Z 32013G19KT 02/M02 A3007 RMK A01 T00161016  RH  079%=      5-min Rain = 0
KPD2 190625Z 32011KT 02/M02 A3008 RMK A01 T00161016  RH  079%=      5-min Rain = 0
KPD2 190626Z 32012KT 02/M02 A3008 RMK A01 T00161016  RH  079%=      5-min Rain = 0
KPD2 190627Z 33014KT 02/M02 A3008 RMK A01 T00161016  RH  079%=      5-min Rain = 0
KPD2 190628Z 32016G22KT 02/M02 A3008 RMK A01 T00161017  RH  079%=      5-min Rain = 0
KPD2 190629Z 33011KT 02/M02 A3008 RMK A01 T00161018  RH  078%=      5-min Rain = 0
KPD2 190630Z 33012KT 02/M02 A3008 RMK A01 T00161017  RH  079%=      5-min Rain = 0
KPD2 190631Z 34013G18KT 02/M02 A3008 RMK A01 T00161017  RH  079%=      5-min Rain = 0
KPD2 190632Z 33011KT 02/M02 A3008 RMK A01 T00161018  RH  079%=      5-min Rain = 0
KPD2 190633Z 33013G18KT 02/M02 A3008 RMK A01 T00161018  RH  078%=      5-min Rain = 0
KPD2 190634Z 32015G21KT 02/M02 A3008 RMK A01 T00151019  RH  078%=      5-min Rain = 0
KPD2 190635Z 33016KT 02/M02 A3008 RMK A01 T00151021  RH  077%=      5-min Rain = 0
KPD2 190636Z 33020G28KT 02/M02 A3008 RMK A01 T00151022  RH  076%=      5-min Rain = 0
KPD2 190637Z 33017KT 02/M02 A3008 RMK A01 T00151024  RH  075%=      5-min Rain = 0
KPD2 190638Z 33013KT 01/M03 A3008 RMK A01 T00141025  RH  075%=      5-min Rain = 0
KPD2 190639Z 31017G23KT 01/M03 A3008 RMK A01 T00141025  RH  075%=      5-min Rain = 0
KPD2 190640Z 32014KT 01/M03 A3008 RMK A01 T00131026  RH  075%=      5-min Rain = 0
KPD2 190641Z 32015KT 01/M03 A3008 RMK A01 T00141026  RH  075%=      5-min Rain = 0
KPD2 190642Z 31015KT 01/M03 A3008 RMK A01 T00141026  RH  075%=      5-min Rain = 0
KPD2 190643Z 32016G23KT 01/M03 A3009 RMK A01 T00131026  RH  075%=      5-min Rain = 0
KPD2 190644Z 32015G22KT 01/M03 A3008 RMK A01 T00131026  RH  075%=      5-min Rain = 0
KPD2 190645Z 33015KT 01/M03 A3009 RMK A01 T00121026  RH  076%=      5-min Rain = 0
KPD2 190646Z 32013KT 01/M03 A3009 RMK A01 T00121026  RH  076%=      5-min Rain = 0
KPD2 190647Z 32012KT 01/M03 A3009 RMK A01 T00121026  RH  076%=      5-min Rain = 0
KPD2 190648Z 33011KT 01/M03 A3009 RMK A01 T00121026  RH  076%=      5-min Rain = 0
KPD2 190649Z 33012KT 01/M03 A3009 RMK A01 T00111025  RH  077%=      5-min Rain = 0
KPD2 190650Z 33014G19KT 01/M03 A3009 RMK A01 T00111025  RH  077%=      5-min Rain = 0
KPD2 190651Z 33016KT 01/M03 A3009 RMK A01 T00111025  RH  077%=      5-min Rain = 0
KPD2 190652Z 33012KT 01/M03 A3009 RMK A01 T00111025  RH  077%=      5-min Rain = 0
KPD2 190653Z 32015KT 01/M02 A3009 RMK A01 T00111024  RH  077%=      5-min Rain = 0
KPD2 190654Z 32013KT 01/M02 A3009 RMK A01 T00121024  RH  077%=      5-min Rain = 0
KPD2 190655Z 34020G30KT 01/M03 A3009 RMK A01 T00121025  RH  077%=      5-min Rain = 0
KPD2 190656Z 33018KT 01/M03 A3009 RMK A01 T00121026  RH  076%=      5-min Rain = 0
KPD2 190657Z 33014KT 01/M03 A3009 RMK A01 T00111027  RH  076%=      5-min Rain = 0
KPD2 190658Z 33014G19KT 01/M03 A3009 RMK A01 T00111027  RH  076%=      5-min Rain = 0
KPD2 190659Z 32016KT 01/M03 A301 RMK A01 T00101028  RH  076%=      5-min Rain = 0
KPD2 190700Z 33013KT 01/M03 A301 RMK A01 T00101029  RH  075%=      5-min Rain = 0
KPD2 190701Z 32014G24KT 01/M03 A301 RMK A01 T00091030  RH  075%=      5-min Rain = 0
KPD2 190702Z 32012KT 01/M03 A301 RMK A01 T00091030  RH  075%=      5-min Rain = 0
KPD2 190703Z 32013KT 01/M03 A301 RMK A01 T00091030  RH  075%=      5-min Rain = 0
KPD2 190704Z 34012G18KT 01/M03 A301 RMK A01 T00081031  RH  075%=      5-min Rain = 0
KPD2 190705Z 33012KT 01/M03 A301 RMK A01 T00071031  RH  075%=      5-min Rain = 0
KPD2 190706Z 32012KT 01/M03 A301 RMK A01 T00071032  RH  075%=      5-min Rain = 0
KPD2 190707Z 33011G16KT 01/M03 A301 RMK A01 T00071032  RH  075%=      5-min Rain = 0
KPD2 190708Z 31012G17KT 01/M03 A301 RMK A01 T00071032  RH  075%=      5-min Rain = 0
KPD2 190709Z 33011KT 01/M03 A301 RMK A01 T00061032  RH  075%=      5-min Rain = 0
KPD2 190710Z 33012KT 01/M03 A301 RMK A01 T00061032  RH  076%=      5-min Rain = 0
KPD2 190711Z 32011KT 01/M03 A301 RMK A01 T00051033  RH  076%=      5-min Rain = 0
KPD2 190712Z 33012KT 01/M03 A301 RMK A01 T00051032  RH  076%=      5-min Rain = 0
KPD2 190713Z 31014G19KT 01/M03 A301 RMK A01 T00051032  RH  076%=      5-min Rain = 0
KPD2 190714Z 31015G22KT 01/M03 A301 RMK A01 T00051032  RH  076%=      5-min Rain = 0
KPD2 190715Z 31017G23KT 01/M03 A301 RMK A01 T00051033  RH  076%=      5-min Rain = 0
KPD2 190716Z 31016KT 01/M03 A3011 RMK A01 T00051033  RH  075%=      5-min Rain = 0
KPD2 190717Z 31014G20KT 01/M03 A3011 RMK A01 T00051034  RH  075%=      5-min Rain = 0
KPD2 190718Z 32016KT 01/M03 A3011 RMK A01 T00051034  RH  075%=      5-min Rain = 0
KPD2 190719Z 32013KT 01/M04 A3011 RMK A01 T00051035  RH  074%=      5-min Rain = 0
KPD2 190720Z 34015KT 01/M04 A3011 RMK A01 T00051035  RH  074%=      5-min Rain = 0
KPD2 190721Z 32016G23KT 01/M04 A3011 RMK A01 T00051035  RH  074%=      5-min Rain = 0
KPD2 190722Z 32014G21KT 01/M04 A3011 RMK A01 T00051035  RH  075%=      5-min Rain = 0
KPD2 190723Z 32017G23KT 00/M04 A3011 RMK A01 T00041036  RH  074%=      5-min Rain = 0
KPD2 190724Z 32016G21KT 00/M04 A3011 RMK A01 T00041036  RH  074%=      5-min Rain = 0
KPD2 190725Z 31012G17KT 00/M04 A3011 RMK A01 T00041036  RH  074%=      5-min Rain = 0
KPD2 190726Z 32015KT 00/M04 A3011 RMK A01 T00041036  RH  074%=      5-min Rain = 0
KPD2 190727Z 32013KT 00/M04 A3011 RMK A01 T00041037  RH  074%=      5-min Rain = 0
KPD2 190728Z 34014KT 00/M04 A3011 RMK A01 T00041037  RH  074%=      5-min Rain = 0
KPD2 190729Z 32012KT 00/M04 A3011 RMK A01 T00031037  RH  074%=      5-min Rain = 0
KPD2 190730Z 32011KT 00/M04 A3011 RMK A01 T00031037  RH  074%=      5-min Rain = 0
KPD2 190731Z 33015KT 00/M04 A3011 RMK A01 T00021037  RH  075%=      5-min Rain = 0
KPD2 190732Z 33019G24KT 00/M04 A3012 RMK A01 T00031038  RH  074%=      5-min Rain = 0
KPD2 190733Z 34020KT 00/M04 A3011 RMK A01 T00031039  RH  074%=      5-min Rain = 0
KPD2 190734Z 33014G19KT 00/M04 A3012 RMK A01 T00021039  RH  073%=      5-min Rain = 0
KPD2 190735Z 33016G21KT 00/M04 A3012 RMK A01 T00021039  RH  074%=      5-min Rain = 0
KPD2 190736Z 32009KT 00/M04 A3012 RMK A01 T00031039  RH  074%=      5-min Rain = 0
KPD2 190737Z 31012KT 00/M04 A3012 RMK A01 T00021039  RH  074%=      5-min Rain = 0
KPD2 190738Z 31012G19KT 00/M04 A3012 RMK A01 T00011039  RH  074%=      5-min Rain = 0
KPD2 190739Z 33012G18KT 00/M04 A3012 RMK A01 T00011040  RH  074%=      5-min Rain = 0
KPD2 190740Z 31014KT 00/M04 A3012 RMK A01 T00021039  RH  074%=      5-min Rain = 0
KPD2 190741Z 33013G18KT 00/M04 A3012 RMK A01 T00011040  RH  074%=      5-min Rain = 0
KPD2 190742Z 32014KT 00/M04 A3012 RMK A01 T00011040  RH  074%=      5-min Rain = 0
KPD2 190743Z 34013KT 00/M04 A3012 RMK A01 T00011041  RH  073%=      5-min Rain = 0
KPD2 190744Z 33013G19KT 00/M04 A3012 RMK A01 T00011040  RH  074%=      5-min Rain = 0
KPD2 190745Z 32011KT 00/04 A3012 RMK A01 T00000-41  RH  074%=      5-min Rain = 0
KPD2 190746Z 33011KT 00/04 A3012 RMK A01 T00000-41  RH  074%=      5-min Rain = 0
KPD2 190747Z 32012G17KT 00/04 A3012 RMK A01 T00000-41  RH  074%=      5-min Rain = 0
KPD2 190748Z 32014G22KT 00/04 A3012 RMK A01 T00000-41  RH  074%=      5-min Rain = 0
KPD2 190749Z 34010G15KT 00/04 A3012 RMK A01 T00000-41  RH  074%=      5-min Rain = 0
KPD2 190750Z 33010KT 00/04 A3012 RMK A01 T00-00-41  RH  074%=      5-min Rain = 0
KPD2 190751Z 32010KT M00/M04 A3012 RMK A01 T10011042  RH  074%=      5-min Rain = 0
KPD2 190752Z 32010KT M00/M04 A3012 RMK A01 T10011041  RH  074%=      5-min Rain = 0
KPD2 190753Z 33012G17KT M00/M04 A3012 RMK A01 T10011041  RH  074%=      5-min Rain = 0
KPD2 190754Z 32012KT M00/M04 A3012 RMK A01 T10011041  RH  074%=      5-min Rain = 0
KPD2 190755Z 33014KT M00/M04 A3012 RMK A01 T10011042  RH  074%=      5-min Rain = 0
KPD2 190756Z 32012KT M00/M04 A3012 RMK A01 T10011042  RH  074%=      5-min Rain = 0
KPD2 190757Z 32010KT M00/M04 A3013 RMK A01 T10011042  RH  074%=      5-min Rain = 0
KPD2 190758Z 32013G20KT M00/M04 A3013 RMK A01 T10011042  RH  074%=      5-min Rain = 0
KPD2 190759Z 32016KT M00/M04 A3012 RMK A01 T10011042  RH  074%=      5-min Rain = 0
KPD2 190800Z 31014KT M00/M04 A3012 RMK A01 T10011042  RH  074%=      5-min Rain = 0
KPD2 190801Z 33015KT M00/M04 A3012 RMK A01 T10011042  RH  074%=      5-min Rain = 0
KPD2 190802Z 32011G17KT M00/M04 A3012 RMK A01 T10011043  RH  074%=      5-min Rain = 0
KPD2 190803Z 32009KT M00/M04 A3013 RMK A01 T10011042  RH  074%=      5-min Rain = 0
KPD2 190804Z 32012KT M00/M04 A3013 RMK A01 T10021042  RH  074%=      5-min Rain = 0
KPD2 190805Z 32011KT M00/M04 A3013 RMK A01 T10021042  RH  074%=      5-min Rain = 0
KPD2 190806Z 32011KT M00/M04 A3013 RMK A01 T10021042  RH  074%=      5-min Rain = 0
KPD2 190807Z 33011G16KT M00/M04 A3013 RMK A01 T10021042  RH  075%=      5-min Rain = 0
KPD2 190808Z 33010KT M00/M04 A3013 RMK A01 T10021042  RH  075%=      5-min Rain = 0
KPD2 190809Z 32009KT M00/M04 A3013 RMK A01 T10031042  RH  075%=      5-min Rain = 0
KPD2 190810Z 32011KT M00/M04 A3013 RMK A01 T10031042  RH  075%=      5-min Rain = 0
KPD2 190811Z 32012KT M00/M04 A3013 RMK A01 T10031042  RH  075%=      5-min Rain = 0
KPD2 190812Z 31011KT M00/M04 A3013 RMK A01 T10031042  RH  075%=      5-min Rain = 0
KPD2 190813Z 32011G16KT M00/M04 A3013 RMK A01 T10031042  RH  075%=      5-min Rain = 0
KPD2 190814Z 31011G18KT M00/M04 A3013 RMK A01 T10021042  RH  075%=      5-min Rain = 0
KPD2 190815Z 32012KT M00/M04 A3013 RMK A01 T10031042  RH  075%=      5-min Rain = 0
KPD2 190816Z 32013G18KT M00/M04 A3013 RMK A01 T10031042  RH  075%=      5-min Rain = 0
KPD2 190817Z 33013KT M00/M04 A3013 RMK A01 T10031042  RH  075%=      5-min Rain = 0
KPD2 190818Z 32010KT M00/M04 A3013 RMK A01 T10031043  RH  075%=      5-min Rain = 0
KPD2 190819Z 32010KT M00/M04 A3013 RMK A01 T10031043  RH  075%=      5-min Rain = 0
KPD2 190820Z 33012KT M00/M04 A3013 RMK A01 T10041043  RH  075%=      5-min Rain = 0
KPD2 190821Z 32012G18KT M00/M04 A3013 RMK A01 T10031043  RH  075%=      5-min Rain = 0
KPD2 190822Z 32013G18KT M00/M04 A3013 RMK A01 T10041043  RH  075%=      5-min Rain = 0
KPD2 190823Z 32015KT M00/M04 A3013 RMK A01 T10041043  RH  075%=      5-min Rain = 0
KPD2 190824Z 32012KT M00/M04 A3013 RMK A01 T10031043  RH  074%=      5-min Rain = 0
KPD2 190825Z 33010G17KT M00/M04 A3013 RMK A01 T10041044  RH  074%=      5-min Rain = 0
KPD2 190826Z 32015KT M00/M04 A3013 RMK A01 T10031043  RH  075%=      5-min Rain = 0
KPD2 190827Z 32014KT M00/M04 A3013 RMK A01 T10031043  RH  075%=      5-min Rain = 0
KPD2 190828Z 32012KT M00/M04 A3013 RMK A01 T10031043  RH  075%=      5-min Rain = 0
KPD2 190829Z 33011G16KT M00/M04 A3013 RMK A01 T10031043  RH  075%=      5-min Rain = 0
KPD2 190830Z 32012KT M00/M04 A3013 RMK A01 T10031043  RH  075%=      5-min Rain = 0
KPD2 190831Z 30011KT M00/M04 A3013 RMK A01 T10041043  RH  075%=      5-min Rain = 0
KPD2 190832Z 31014KT M00/M04 A3014 RMK A01 T10031042  RH  075%=      5-min Rain = 0
KPD2 190833Z 32011KT M00/M04 A3014 RMK A01 T10031042  RH  075%=      5-min Rain = 0
KPD2 190834Z 32012KT M00/M04 A3014 RMK A01 T10031042  RH  075%=      5-min Rain = 0
KPD2 190835Z 31015KT M00/M04 A3014 RMK A01 T10031042  RH  075%=      5-min Rain = 0
KPD2 190836Z 33013G19KT M00/M04 A3014 RMK A01 T10041042  RH  075%=      5-min Rain = 0
KPD2 190837Z 33019G25KT M00/M04 A3014 RMK A01 T10041042  RH  075%=      5-min Rain = 0
KPD2 190838Z 33018G27KT M00/M04 A3014 RMK A01 T10031042  RH  075%=      5-min Rain = 0
KPD2 190839Z 33011KT M00/M04 A3014 RMK A01 T10031043  RH  074%=      5-min Rain = 0
KPD2 190840Z 32011KT M00/M04 A3014 RMK A01 T10021042  RH  074%=      5-min Rain = 0
KPD2 190841Z 32013KT M00/M04 A3014 RMK A01 T10021042  RH  075%=      5-min Rain = 0
KPD2 190842Z 32010KT M00/M04 A3014 RMK A01 T10021042  RH  075%=      5-min Rain = 0
KPD2 190843Z 32011KT M00/M04 A3014 RMK A01 T10031042  RH  075%=      5-min Rain = 0
KPD2 190844Z 31011G16KT M00/M04 A3014 RMK A01 T10031041  RH  075%=      5-min Rain = 0
KPD2 190845Z 32008KT M00/M04 A3014 RMK A01 T10021041  RH  075%=      5-min Rain = 0
KPD2 190846Z 33009KT M00/M04 A3014 RMK A01 T10031041  RH  075%=      5-min Rain = 0
KPD2 190847Z 32008KT M00/M04 A3014 RMK A01 T10031041  RH  076%=      5-min Rain = 0
KPD2 190848Z 33009KT M00/M04 A3015 RMK A01 T10041041  RH  076%=      5-min Rain = 0
KPD2 190849Z 34010KT M00/M04 A3014 RMK A01 T10041041  RH  076%=      5-min Rain = 0
KPD2 190850Z 33012KT M00/M04 A3014 RMK A01 T10041040  RH  076%=      5-min Rain = 0
KPD2 190851Z 31010KT M00/M04 A3015 RMK A01 T10041040  RH  076%=      5-min Rain = 0
KPD2 190852Z 32013G18KT M00/M04 A3014 RMK A01 T10041040  RH  077%=      5-min Rain = 0
KPD2 190853Z 34009G17KT M00/M04 A3015 RMK A01 T10041041  RH  076%=      5-min Rain = 0
KPD2 190854Z 34013G20KT M00/M04 A3015 RMK A01 T10041041  RH  076%=      5-min Rain = 0
KPD2 190855Z 34011G20KT M01/M04 A3015 RMK A01 T10051041  RH  076%=      5-min Rain = 0
KPD2 190856Z 34008KT M01/M04 A3015 RMK A01 T10051041  RH  076%=      5-min Rain = 0
KPD2 190857Z 32008KT M01/M04 A3015 RMK A01 T10051041  RH  077%=      5-min Rain = 0
KPD2 190858Z 31009KT M01/M04 A3015 RMK A01 T10051041  RH  077%=      5-min Rain = 0
KPD2 190859Z 31011KT M01/M04 A3014 RMK A01 T10051041  RH  077%=      5-min Rain = 0
KPD2 190900Z 32013KT M01/M04 A3015 RMK A01 T10051041  RH  077%=      5-min Rain = 0
KPD2 190901Z 32009G14KT M01/M04 A3015 RMK A01 T10051041  RH  076%=      5-min Rain = 0
KPD2 190902Z 31011G18KT M01/M04 A3015 RMK A01 T10051042  RH  076%=      5-min Rain = 0
KPD2 190903Z 31012KT M01/M04 A3015 RMK A01 T10051043  RH  076%=      5-min Rain = 0
KPD2 190904Z 31010G15KT M01/M04 A3015 RMK A01 T10051043  RH  076%=      5-min Rain = 0
KPD2 190905Z 31012G17KT M01/M04 A3015 RMK A01 T10061043  RH  076%=      5-min Rain = 0
KPD2 190906Z 32013G19KT M01/M04 A3015 RMK A01 T10051043  RH  076%=      5-min Rain = 0
KPD2 190907Z 33014KT M01/M04 A3015 RMK A01 T10061043  RH  076%=      5-min Rain = 0
KPD2 190908Z 32011KT M01/M04 A3015 RMK A01 T10061043  RH  076%=      5-min Rain = 0
KPD2 190909Z 31012G17KT M01/M04 A3015 RMK A01 T10061043  RH  076%=      5-min Rain = 0
KPD2 190910Z 32013KT M01/M04 A3015 RMK A01 T10061044  RH  076%=      5-min Rain = 0
KPD2 190911Z 33010KT M01/M04 A3015 RMK A01 T10061044  RH  076%=      5-min Rain = 0
KPD2 190912Z 33012G17KT M01/M04 A3015 RMK A01 T10061043  RH  076%=      5-min Rain = 0
KPD2 190913Z 34012KT M01/M04 A3015 RMK A01 T10061044  RH  075%=      5-min Rain = 0
KPD2 190914Z 33011KT M01/M05 A3016 RMK A01 T10061045  RH  075%=      5-min Rain = 0
KPD2 190915Z 33011KT M01/M05 A3016 RMK A01 T10061045  RH  075%=      5-min Rain = 0
KPD2 190916Z 31013KT M01/M04 A3016 RMK A01 T10061044  RH  075%=      5-min Rain = 0
KPD2 190917Z 33015G22KT M01/M05 A3016 RMK A01 T10061045  RH  075%=      5-min Rain = 0
KPD2 190918Z 33012G20KT M01/M05 A3016 RMK A01 T10061045  RH  075%=      5-min Rain = 0
KPD2 190919Z 32010KT M01/M05 A3016 RMK A01 T10061045  RH  075%=      5-min Rain = 0
KPD2 190920Z 31012KT M01/M05 A3016 RMK A01 T10061045  RH  075%=      5-min Rain = 0
KPD2 190921Z 31013G20KT M01/M05 A3016 RMK A01 T10061045  RH  075%=      5-min Rain = 0
KPD2 190922Z 31013G18KT M01/M05 A3016 RMK A01 T10061045  RH  075%=      5-min Rain = 0
KPD2 190923Z 32011KT M01/M05 A3016 RMK A01 T10061045  RH  075%=      5-min Rain = 0
KPD2 190924Z 32009KT M01/M05 A3016 RMK A01 T10061045  RH  075%=      5-min Rain = 0
KPD2 190925Z 33012KT M01/M05 A3016 RMK A01 T10061045  RH  075%=      5-min Rain = 0
KPD2 190926Z 32012KT M01/M05 A3016 RMK A01 T10071045  RH  075%=      5-min Rain = 0
KPD2 190927Z 32012KT M01/M05 A3016 RMK A01 T10071045  RH  075%=      5-min Rain = 0
KPD2 190928Z 32011KT M01/M05 A3016 RMK A01 T10071045  RH  075%=      5-min Rain = 0
KPD2 190929Z 33011KT M01/M04 A3016 RMK A01 T10061044  RH  075%=      5-min Rain = 0
KPD2 190930Z 31012G18KT M01/M05 A3016 RMK A01 T10071045  RH  075%=      5-min Rain = 0
KPD2 190931Z 32011KT M01/M05 A3016 RMK A01 T10071045  RH  075%=      5-min Rain = 0
KPD2 190932Z 32013KT M01/M05 A3016 RMK A01 T10071045  RH  075%=      5-min Rain = 0
KPD2 190933Z 33012KT M01/M05 A3016 RMK A01 T10071046  RH  075%=      5-min Rain = 0
KPD2 190934Z 32011KT M01/M05 A3017 RMK A01 T10071046  RH  075%=      5-min Rain = 0
KPD2 190935Z 33011G17KT M01/M05 A3017 RMK A01 T10071046  RH  075%=      5-min Rain = 0
KPD2 190936Z 32013KT M01/M05 A3017 RMK A01 T10071046  RH  075%=      5-min Rain = 0
KPD2 190937Z 33008G13KT M01/M05 A3017 RMK A01 T10071046  RH  075%=      5-min Rain = 0
KPD2 190938Z 32011G16KT M01/M05 A3017 RMK A01 T10071046  RH  075%=      5-min Rain = 0
KPD2 190939Z 31012G17KT M01/M05 A3017 RMK A01 T10071046  RH  075%=      5-min Rain = 0
KPD2 190940Z 33015KT M01/M05 A3017 RMK A01 T10071046  RH  075%=      5-min Rain = 0
KPD2 190941Z 32013KT M01/M05 A3017 RMK A01 T10071046  RH  075%=      5-min Rain = 0
KPD2 190942Z 33014G20KT M01/M05 A3017 RMK A01 T10071046  RH  075%=      5-min Rain = 0
KPD2 190943Z 32012KT M01/M05 A3017 RMK A01 T10071047  RH  075%=      5-min Rain = 0
KPD2 190944Z 32014KT M01/M05 A3017 RMK A01 T10071047  RH  074%=      5-min Rain = 0
KPD2 190945Z 32013KT M01/M05 A3017 RMK A01 T10071047  RH  074%=      5-min Rain = 0
KPD2 190946Z 30016G22KT M01/M05 A3017 RMK A01 T10071047  RH  074%=      5-min Rain = 0
KPD2 190947Z 31015G21KT M01/M05 A3016 RMK A01 T10071047  RH  074%=      5-min Rain = 0
KPD2 190948Z 31014KT M01/M05 A3016 RMK A01 T10071047  RH  074%=      5-min Rain = 0
KPD2 190949Z 31014KT M01/M05 A3017 RMK A01 T10071047  RH  074%=      5-min Rain = 0
KPD2 190950Z 32013KT M01/M05 A3017 RMK A01 T10071047  RH  074%=      5-min Rain = 0
KPD2 190951Z 31013KT M01/M05 A3017 RMK A01 T10071047  RH  075%=      5-min Rain = 0
KPD2 190952Z 32012KT M01/M05 A3017 RMK A01 T10081047  RH  075%=      5-min Rain = 0
KPD2 190953Z 32013G19KT M01/M05 A3016 RMK A01 T10081047  RH  075%=      5-min Rain = 0
KPD2 190954Z 32011KT M01/M05 A3017 RMK A01 T10081047  RH  075%=      5-min Rain = 0
KPD2 190955Z 33010KT M01/M05 A3017 RMK A01 T10091047  RH  075%=      5-min Rain = 0
KPD2 190956Z 32011G19KT M01/M05 A3017 RMK A01 T10091047  RH  075%=      5-min Rain = 0
KPD2 190957Z 31012KT M01/M05 A3016 RMK A01 T10091048  RH  075%=      5-min Rain = 0
KPD2 190958Z 32015G21KT M01/M05 A3016 RMK A01 T10101048  RH  075%=      5-min Rain = 0
KPD2 190959Z 32012KT M01/M05 A3016 RMK A01 T10091048  RH  075%=      5-min Rain = 0
KPD2 191000Z 31013KT M01/M05 A3016 RMK A01 T10091048  RH  075%=      5-min Rain = 0
KPD2 191001Z 33011KT M01/M05 A3016 RMK A01 T10091048  RH  075%=      5-min Rain = 0
KPD2 191002Z 31012G17KT M01/M05 A3016 RMK A01 T10101048  RH  075%=      5-min Rain = 0
KPD2 191003Z 31012G17KT M01/M05 A3016 RMK A01 T10101048  RH  075%=      5-min Rain = 0
KPD2 191004Z 32013KT M01/M05 A3016 RMK A01 T10091048  RH  075%=      5-min Rain = 0
KPD2 191005Z 31011KT M01/M05 A3016 RMK A01 T10091048  RH  075%=      5-min Rain = 0
KPD2 191006Z 31015G20KT M01/M05 A3016 RMK A01 T10091048  RH  075%=      5-min Rain = 0
KPD2 191007Z 32012KT M01/M05 A3016 RMK A01 T10091048  RH  075%=      5-min Rain = 0
KPD2 191008Z 32011KT M01/M05 A3016 RMK A01 T10091048  RH  075%=      5-min Rain = 0
KPD2 191009Z 32014KT M01/M05 A3016 RMK A01 T10101048  RH  075%=      5-min Rain = 0
KPD2 191010Z 32014KT M01/M05 A3016 RMK A01 T10091048  RH  075%=      5-min Rain = 0
KPD2 191011Z 32012KT M01/M05 A3017 RMK A01 T10091048  RH  075%=      5-min Rain = 0
KPD2 191012Z 32011KT M01/M05 A3016 RMK A01 T10091048  RH  075%=      5-min Rain = 0
KPD2 191013Z 32011KT M01/M05 A3016 RMK A01 T10091048  RH  075%=      5-min Rain = 0
KPD2 191014Z 33011KT M01/M05 A3017 RMK A01 T10091048  RH  075%=      5-min Rain = 0
KPD2 191015Z 32012G18KT M01/M05 A3017 RMK A01 T10101048  RH  075%=      5-min Rain = 0
KPD2 191016Z 34015KT M01/M05 A3017 RMK A01 T10101048  RH  075%=      5-min Rain = 0
KPD2 191017Z 34011KT M01/M05 A3017 RMK A01 T10091048  RH  075%=      5-min Rain = 0
KPD2 191018Z 32011KT M01/M05 A3016 RMK A01 T10091048  RH  075%=      5-min Rain = 0
KPD2 191019Z 32012G18KT M01/M05 A3016 RMK A01 T10091048  RH  075%=      5-min Rain = 0
KPD2 191020Z 33016G22KT M01/M05 A3017 RMK A01 T10091048  RH  075%=      5-min Rain = 0
KPD2 191021Z 33011KT M01/M05 A3017 RMK A01 T10091048  RH  075%=      5-min Rain = 0
KPD2 191022Z 32016G21KT M01/M05 A3017 RMK A01 T10091048  RH  075%=      5-min Rain = 0
KPD2 191023Z 33011KT M01/M05 A3017 RMK A01 T10091048  RH  075%=      5-min Rain = 0
KPD2 191024Z 31011G16KT M01/M05 A3017 RMK A01 T10091048  RH  075%=      5-min Rain = 0
KPD2 191025Z 32012G17KT M01/M05 A3017 RMK A01 T10091048  RH  075%=      5-min Rain = 0
KPD2 191026Z 31012KT M01/M05 A3017 RMK A01 T10091049  RH  075%=      5-min Rain = 0
KPD2 191027Z 32014G19KT M01/M05 A3017 RMK A01 T10091049  RH  075%=      5-min Rain = 0
KPD2 191028Z 31011KT M01/M05 A3017 RMK A01 T10091049  RH  075%=      5-min Rain = 0
KPD2 191029Z 32013G19KT M01/M05 A3017 RMK A01 T10091049  RH  075%=      5-min Rain = 0
KPD2 191030Z 31011G16KT M01/M05 A3017 RMK A01 T10091049  RH  075%=      5-min Rain = 0
KPD2 191031Z 32014KT M01/M05 A3017 RMK A01 T10091049  RH  075%=      5-min Rain = 0
KPD2 191032Z 31011KT M01/M05 A3017 RMK A01 T10091049  RH  075%=      5-min Rain = 0
KPD2 191033Z 32013KT M01/M05 A3017 RMK A01 T10091049  RH  075%=      5-min Rain = 0
KPD2 191034Z 32013KT M01/M05 A3017 RMK A01 T10091048  RH  075%=      5-min Rain = 0
KPD2 191035Z 31015KT M01/M05 A3017 RMK A01 T10091048  RH  075%=      5-min Rain = 0
KPD2 191036Z 32013KT M01/M05 A3017 RMK A01 T10091048  RH  075%=      5-min Rain = 0
KPD2 191037Z 31010G15KT M01/M05 A3017 RMK A01 T10091047  RH  075%=      5-min Rain = 0
KPD2 191038Z 31012KT M01/M05 A3017 RMK A01 T10091047  RH  075%=      5-min Rain = 0
KPD2 191039Z 31013G19KT M01/M05 A3017 RMK A01 T10101048  RH  076%=      5-min Rain = 0
KPD2 191040Z 32010KT M01/M05 A3017 RMK A01 T10101047  RH  076%=      5-min Rain = 0
KPD2 191041Z 31010G15KT M01/M05 A3017 RMK A01 T10101047  RH  076%=      5-min Rain = 0
KPD2 191042Z 31011G18KT M01/M05 A3017 RMK A01 T10101047  RH  076%=      5-min Rain = 0
KPD2 191043Z 31012G19KT M01/M05 A3017 RMK A01 T10111047  RH  076%=      5-min Rain = 0
KPD2 191044Z 30011G17KT M01/M05 A3017 RMK A01 T10111047  RH  077%=      5-min Rain = 0
KPD2 191045Z 32012KT M01/M05 A3017 RMK A01 T10111046  RH  077%=      5-min Rain = 0
KPD2 191046Z 32011KT M01/M05 A3017 RMK A01 T10111046  RH  077%=      5-min Rain = 0
KPD2 191047Z 31008KT M01/M05 A3018 RMK A01 T10111046  RH  077%=      5-min Rain = 0
KPD2 191048Z 31009KT M01/M05 A3018 RMK A01 T10111046  RH  077%=      5-min Rain = 0
KPD2 191049Z 33010G15KT M01/M05 A3018 RMK A01 T10111046  RH  077%=      5-min Rain = 0
KPD2 191050Z 32011KT M01/M05 A3018 RMK A01 T10111046  RH  077%=      5-min Rain = 0
KPD2 191051Z 31010G15KT M01/M05 A3018 RMK A01 T10111046  RH  077%=      5-min Rain = 0
KPD2 191052Z 31012KT M01/M05 A3017 RMK A01 T10111046  RH  077%=      5-min Rain = 0
KPD2 191053Z 31012G17KT M01/M05 A3018 RMK A01 T10111046  RH  077%=      5-min Rain = 0
KPD2 191054Z 32013KT M01/M05 A3018 RMK A01 T10111046  RH  077%=      5-min Rain = 0
KPD2 191055Z 31012KT M01/M05 A3018 RMK A01 T10111046  RH  077%=      5-min Rain = 0
KPD2 191056Z 32012KT M01/M05 A3018 RMK A01 T10101046  RH  077%=      5-min Rain = 0
KPD2 191057Z 32010KT M01/M05 A3018 RMK A01 T10101046  RH  077%=      5-min Rain = 0
KPD2 191058Z 32011KT M01/M05 A3018 RMK A01 T10101046  RH  076%=      5-min Rain = 0
KPD2 191059Z 32013KT M01/M05 A3018 RMK A01 T10101046  RH  077%=      5-min Rain = 0
KPD2 191100Z 31010KT M01/M05 A3018 RMK A01 T10101046  RH  077%=      5-min Rain = 0
KPD2 191101Z 31012KT M01/M05 A3018 RMK A01 T10101046  RH  077%=      5-min Rain = 0
KPD2 191102Z 31012G17KT M01/M05 A3018 RMK A01 T10101045  RH  077%=      5-min Rain = 0
KPD2 191103Z 31012KT M01/M05 A3018 RMK A01 T10101045  RH  077%=      5-min Rain = 0
KPD2 191104Z 32016G21KT M01/M05 A3018 RMK A01 T10101045  RH  077%=      5-min Rain = 0
KPD2 191105Z 32011G16KT M01/M05 A3019 RMK A01 T10091045  RH  077%=      5-min Rain = 0
KPD2 191106Z 32013G19KT M01/M05 A3019 RMK A01 T10091045  RH  077%=      5-min Rain = 0
KPD2 191107Z 32013KT M01/M05 A3019 RMK A01 T10091045  RH  077%=      5-min Rain = 0
KPD2 191108Z 32012KT M01/M04 A3019 RMK A01 T10091044  RH  077%=      5-min Rain = 0
KPD2 191109Z 30011KT M01/M04 A3019 RMK A01 T10091044  RH  077%=      5-min Rain = 0
KPD2 191110Z 31012KT M01/M04 A3019 RMK A01 T10091044  RH  077%=      5-min Rain = 0
KPD2 191111Z 30011KT M01/M04 A3019 RMK A01 T10091043  RH  077%=      5-min Rain = 0
KPD2 191112Z 31009KT M01/M04 A3019 RMK A01 T10091044  RH  077%=      5-min Rain = 0
KPD2 191113Z 30008KT M01/M04 A3019 RMK A01 T10091043  RH  077%=      5-min Rain = 0
KPD2 191114Z 31008G13KT M01/M04 A3019 RMK A01 T10091043  RH  077%=      5-min Rain = 0
KPD2 191115Z 32011G16KT M01/M04 A3019 RMK A01 T10091043  RH  078%=      5-min Rain = 0
KPD2 191116Z 32011KT M01/M04 A3019 RMK A01 T10091043  RH  078%=      5-min Rain = 0
KPD2 191117Z 31011KT M01/M04 A3019 RMK A01 T10091043  RH  078%=      5-min Rain = 0
KPD2 191118Z 32010KT M01/M04 A3019 RMK A01 T10091043  RH  078%=      5-min Rain = 0
KPD2 191119Z 33013KT M01/M04 A302 RMK A01 T10091043  RH  077%=      5-min Rain = 0
KPD2 191120Z 31016KT M01/M04 A3019 RMK A01 T10091044  RH  077%=      5-min Rain = 0
KPD2 191121Z 32015KT M01/M04 A3019 RMK A01 T10091044  RH  077%=      5-min Rain = 0
KPD2 191122Z 32014KT M01/M04 A3019 RMK A01 T10081044  RH  077%=      5-min Rain = 0
KPD2 191123Z 32014KT M01/M04 A3019 RMK A01 T10081044  RH  077%=      5-min Rain = 0
KPD2 191124Z 33013G18KT M01/M04 A3019 RMK A01 T10081044  RH  077%=      5-min Rain = 0
KPD2 191125Z 32013KT M01/M04 A3019 RMK A01 T10081044  RH  077%=      5-min Rain = 0
KPD2 191126Z 31010KT M01/M04 A3019 RMK A01 T10081044  RH  077%=      5-min Rain = 0
KPD2 191127Z 31013G18KT M01/M04 A302 RMK A01 T10081044  RH  077%=      5-min Rain = 0
KPD2 191128Z 32011KT M01/M04 A302 RMK A01 T10081044  RH  077%=      5-min Rain = 0
KPD2 191129Z 31012KT M01/M04 A302 RMK A01 T10081044  RH  077%=      5-min Rain = 0
KPD2 191130Z 31010KT M01/M04 A302 RMK A01 T10081044  RH  077%=      5-min Rain = 0
KPD2 191131Z 31011KT M01/M04 A302 RMK A01 T10091044  RH  077%=      5-min Rain = 0
KPD2 191132Z 32010G15KT M01/M05 A302 RMK A01 T10091045  RH  077%=      5-min Rain = 0
KPD2 191133Z 32010KT M01/M04 A302 RMK A01 T10091044  RH  077%=      5-min Rain = 0
KPD2 191134Z 32013KT M01/M05 A302 RMK A01 T10101045  RH  077%=      5-min Rain = 0
KPD2 191135Z 32010KT M01/M05 A302 RMK A01 T10101045  RH  077%=      5-min Rain = 0
KPD2 191136Z 30010KT M01/M05 A302 RMK A01 T10101045  RH  077%=      5-min Rain = 0
KPD2 191137Z 31008KT M01/M05 A302 RMK A01 T10101045  RH  077%=      5-min Rain = 0
KPD2 191138Z 31010KT M01/M05 A302 RMK A01 T10111046  RH  077%=      5-min Rain = 0
KPD2 191139Z 31010KT M01/M05 A302 RMK A01 T10121046  RH  077%=      5-min Rain = 0
KPD2 191140Z 31010KT M01/M05 A302 RMK A01 T10121046  RH  078%=      5-min Rain = 0
KPD2 191141Z 31010KT M01/M05 A302 RMK A01 T10121046  RH  078%=      5-min Rain = 0
KPD2 191142Z 32010G16KT M01/M05 A302 RMK A01 T10121046  RH  078%=      5-min Rain = 0
KPD2 191143Z 31008KT M01/M05 A302 RMK A01 T10131046  RH  078%=      5-min Rain = 0
KPD2 191144Z 31010KT M01/M05 A302 RMK A01 T10131047  RH  078%=      5-min Rain = 0
KPD2 191145Z 32010KT M01/M05 A302 RMK A01 T10141047  RH  078%=      5-min Rain = 0
KPD2 191146Z 31009KT M01/M05 A302 RMK A01 T10141047  RH  078%=      5-min Rain = 0
KPD2 191147Z 31010KT M01/M05 A302 RMK A01 T10141047  RH  078%=      5-min Rain = 0
KPD2 191148Z 32011KT M01/M05 A302 RMK A01 T10141047  RH  078%=      5-min Rain = 0
KPD2 191149Z 32014KT M01/M05 A302 RMK A01 T10141047  RH  078%=      5-min Rain = 0
KPD2 191150Z 31012KT M01/M05 A302 RMK A01 T10131047  RH  078%=      5-min Rain = 0
KPD2 191151Z 31008KT M01/M05 A302 RMK A01 T10131047  RH  078%=      5-min Rain = 0
KPD2 191152Z 32010KT M01/M05 A302 RMK A01 T10131047  RH  078%=      5-min Rain = 0
KPD2 191153Z 33012KT M01/M05 A302 RMK A01 T10131047  RH  078%=      5-min Rain = 0
KPD2 191154Z 32009KT M01/M05 A302 RMK A01 T10131047  RH  078%=      5-min Rain = 0
KPD2 191155Z 31011G18KT M01/M05 A302 RMK A01 T10131047  RH  078%=      5-min Rain = 0
KPD2 191156Z 32011G19KT M01/M05 A302 RMK A01 T10141047  RH  078%=      5-min Rain = 0
KPD2 191157Z 31008KT M01/M05 A302 RMK A01 T10141047  RH  078%=      5-min Rain = 0
KPD2 191158Z 32007KT M01/M05 A302 RMK A01 T10141047  RH  078%=      5-min Rain = 0
KPD2 191159Z 32008KT M02/M05 A302 RMK A01 T10151047  RH  078%=      5-min Rain = 0
KPD2 191200Z 32009KT M02/M05 A302 RMK A01 T10151048  RH  078%=      5-min Rain = 0
KPD2 191201Z 32011KT M02/M05 A302 RMK A01 T10151047  RH  079%=      5-min Rain = 0
KPD2 191202Z 31011KT M02/M05 A302 RMK A01 T10151047  RH  079%=      5-min Rain = 0
KPD2 191203Z 32010G15KT M01/M05 A302 RMK A01 T10141047  RH  079%=      5-min Rain = 0
KPD2 191204Z 31009KT M01/M05 A302 RMK A01 T10141047  RH  078%=      5-min Rain = 0
KPD2 191205Z 31008KT M01/M05 A302 RMK A01 T10141047  RH  078%=      5-min Rain = 0
KPD2 191206Z 32009KT M01/M05 A3021 RMK A01 T10141047  RH  078%=      5-min Rain = 0
KPD2 191207Z 32009KT M02/M05 A3021 RMK A01 T10151048  RH  078%=      5-min Rain = 0
KPD2 191208Z 31009KT M02/M05 A3021 RMK A01 T10151048  RH  078%=      5-min Rain = 0
KPD2 191209Z 32008KT M02/M05 A3021 RMK A01 T10151048  RH  078%=      5-min Rain = 0
KPD2 191210Z 31007KT M02/M05 A3021 RMK A01 T10151048  RH  078%=      5-min Rain = 0
KPD2 191211Z 31008KT M02/M05 A3021 RMK A01 T10161048  RH  079%=      5-min Rain = 0
KPD2 191212Z 32007KT M02/M05 A3021 RMK A01 T10161048  RH  079%=      5-min Rain = 0
KPD2 191213Z 31009KT M02/M05 A3021 RMK A01 T10161048  RH  079%=      5-min Rain = 0
KPD2 191214Z 31008KT M02/M05 A3021 RMK A01 T10161048  RH  079%=      5-min Rain = 0
KPD2 191215Z 31007KT M02/M05 A3021 RMK A01 T10161048  RH  079%=      5-min Rain = 0
KPD2 191216Z 31008KT M02/M05 A3021 RMK A01 T10161048  RH  079%=      5-min Rain = 0
KPD2 191217Z 32009KT M02/M05 A3021 RMK A01 T10161048  RH  079%=      5-min Rain = 0
KPD2 191218Z 32009KT M02/M05 A3021 RMK A01 T10161048  RH  079%=      5-min Rain = 0
KPD2 191219Z 32009KT M02/M05 A3021 RMK A01 T10161048  RH  079%=      5-min Rain = 0
KPD2 191220Z 32009G14KT M02/M05 A3021 RMK A01 T10161048  RH  079%=      5-min Rain = 0
KPD2 191221Z 32008KT M02/M05 A3021 RMK A01 T10161048  RH  079%=      5-min Rain = 0
KPD2 191222Z 32011KT M02/M05 A3021 RMK A01 T10161048  RH  079%=      5-min Rain = 0
KPD2 191223Z 33007KT M02/M05 A3021 RMK A01 T10151048  RH  078%=      5-min Rain = 0
KPD2 191224Z 32008KT M02/M05 A3021 RMK A01 T10151048  RH  078%=      5-min Rain = 0
KPD2 191225Z 32009KT M02/M05 A3021 RMK A01 T10151048  RH  078%=      5-min Rain = 0
KPD2 191226Z 32008KT M02/M05 A3021 RMK A01 T10151048  RH  078%=      5-min Rain = 0
KPD2 191227Z 32007KT M02/M05 A3021 RMK A01 T10151049  RH  078%=      5-min Rain = 0
KPD2 191228Z 32007KT M02/M05 A3021 RMK A01 T10151048  RH  078%=      5-min Rain = 0
KPD2 191229Z 32007KT M02/M05 A3021 RMK A01 T10151049  RH  078%=      5-min Rain = 0
KPD2 191230Z 32008KT M02/M05 A3021 RMK A01 T10151048  RH  078%=      5-min Rain = 0
KPD2 191231Z 32009KT M02/M05 A3021 RMK A01 T10161049  RH  078%=      5-min Rain = 0
KPD2 191232Z 31008KT M02/M05 A3021 RMK A01 T10161049  RH  078%=      5-min Rain = 0
KPD2 191233Z 31006KT M02/M05 A3021 RMK A01 T10161049  RH  078%=      5-min Rain = 0
KPD2 191234Z 33008KT M02/M05 A3021 RMK A01 T10161049  RH  078%=      5-min Rain = 0
KPD2 191235Z 32007KT M02/M05 A3021 RMK A01 T10161049  RH  078%=      5-min Rain = 0
KPD2 191236Z 32008KT M02/M05 A3021 RMK A01 T10161049  RH  078%=      5-min Rain = 0
KPD2 191237Z 33008KT M02/M05 A3021 RMK A01 T10161049  RH  078%=      5-min Rain = 0
KPD2 191238Z 33007KT M02/M05 A3021 RMK A01 T10161049  RH  078%=      5-min Rain = 0
KPD2 191239Z 31007KT M02/M05 A3021 RMK A01 T10161049  RH  078%=      5-min Rain = 0
KPD2 191240Z 31006KT M02/M05 A3021 RMK A01 T10161049  RH  078%=      5-min Rain = 0
KPD2 191241Z 32007KT M02/M05 A3021 RMK A01 T10171050  RH  078%=      5-min Rain = 0
KPD2 191242Z 32007KT M02/M05 A3021 RMK A01 T10171050  RH  078%=      5-min Rain = 0
KPD2 191243Z 31007KT M02/M05 A3021 RMK A01 T10171050  RH  078%=      5-min Rain = 0
KPD2 191244Z 32009KT M02/M05 A3022 RMK A01 T10171050  RH  078%=      5-min Rain = 0
KPD2 191245Z 32009KT M02/M05 A3022 RMK A01 T10171050  RH  078%=      5-min Rain = 0
KPD2 191246Z 31007KT M02/M05 A3021 RMK A01 T10161050  RH  078%=      5-min Rain = 0
KPD2 191247Z 32009KT M02/M05 A3021 RMK A01 T10161050  RH  078%=      5-min Rain = 0
KPD2 191248Z 33007KT M02/M05 A3021 RMK A01 T10161050  RH  078%=      5-min Rain = 0
KPD2 191249Z 32006KT M02/M05 A3021 RMK A01 T10161050  RH  077%=      5-min Rain = 0
KPD2 191250Z 33008KT M02/M05 A3021 RMK A01 T10161050  RH  077%=      5-min Rain = 0
KPD2 191251Z 32009KT M02/M05 A3022 RMK A01 T10161051  RH  078%=      5-min Rain = 0
KPD2 191252Z 34012KT M02/M05 A3022 RMK A01 T10161050  RH  078%=      5-min Rain = 0
KPD2 191253Z 34008KT M02/M05 A3022 RMK A01 T10161050  RH  077%=      5-min Rain = 0
KPD2 191254Z 32006KT M02/M05 A3022 RMK A01 T10161051  RH  077%=      5-min Rain = 0
KPD2 191255Z 32006KT M02/M05 A3022 RMK A01 T10161050  RH  077%=      5-min Rain = 0
KPD2 191256Z 32010KT M02/M05 A3022 RMK A01 T10161051  RH  077%=      5-min Rain = 0
KPD2 191257Z 32011KT M02/M05 A3022 RMK A01 T10171051  RH  077%=      5-min Rain = 0
KPD2 191258Z 32009KT M02/M05 A3022 RMK A01 T10161050  RH  077%=      5-min Rain = 0
KPD2 191259Z 31009KT M02/M05 A3022 RMK A01 T10151050  RH  077%=      5-min Rain = 0
KPD2 191300Z 32007KT M02/M05 A3022 RMK A01 T10151051  RH  077%=      5-min Rain = 0
KPD2 191301Z 32009KT M02/M05 A3022 RMK A01 T10151050  RH  077%=      5-min Rain = 0
KPD2 191302Z 33009KT M02/M05 A3022 RMK A01 T10151051  RH  077%=      5-min Rain = 0
KPD2 191303Z 33009KT M02/M05 A3023 RMK A01 T10151051  RH  077%=      5-min Rain = 0
KPD2 191304Z 32011KT M02/M05 A3023 RMK A01 T10161051  RH  077%=      5-min Rain = 0
KPD2 191305Z 31009KT M02/M05 A3023 RMK A01 T10151051  RH  077%=      5-min Rain = 0
KPD2 191306Z 31008KT M02/M05 A3023 RMK A01 T10161051  RH  077%=      5-min Rain = 0
KPD2 191307Z 32008KT M02/M05 A3023 RMK A01 T10161051  RH  077%=      5-min Rain = 0
KPD2 191308Z 31009KT M02/M05 A3023 RMK A01 T10171052  RH  077%=      5-min Rain = 0
KPD2 191309Z 31008KT M02/M05 A3023 RMK A01 T10171052  RH  077%=      5-min Rain = 0
KPD2 191310Z 32008KT M02/M05 A3023 RMK A01 T10171052  RH  077%=      5-min Rain = 0
KPD2 191311Z 32006KT M02/M05 A3023 RMK A01 T10171052  RH  077%=      5-min Rain = 0
KPD2 191312Z 31008KT M02/M05 A3023 RMK A01 T10171052  RH  077%=      5-min Rain = 0
KPD2 191313Z 32007KT M02/M05 A3023 RMK A01 T10181052  RH  077%=      5-min Rain = 0
KPD2 191314Z 31009KT M02/M05 A3023 RMK A01 T10181052  RH  078%=      5-min Rain = 0
KPD2 191315Z 32009KT M02/M05 A3023 RMK A01 T10181052  RH  078%=      5-min Rain = 0
KPD2 191316Z 31008KT M02/M05 A3024 RMK A01 T10191052  RH  078%=      5-min Rain = 0
KPD2 191317Z 32008KT M02/M05 A3024 RMK A01 T10181052  RH  078%=      5-min Rain = 0
KPD2 191318Z 32009KT M02/M05 A3024 RMK A01 T10181052  RH  078%=      5-min Rain = 0
KPD2 191319Z 31007KT M02/M05 A3024 RMK A01 T10181052  RH  078%=      5-min Rain = 0
KPD2 191320Z 31008KT M02/M05 A3024 RMK A01 T10181052  RH  078%=      5-min Rain = 0
KPD2 191321Z 31006KT M02/M05 A3024 RMK A01 T10181052  RH  078%=      5-min Rain = 0
KPD2 191322Z 30007KT M02/M05 A3024 RMK A01 T10181052  RH  078%=      5-min Rain = 0
KPD2 191323Z 31008KT M02/M05 A3024 RMK A01 T10191052  RH  078%=      5-min Rain = 0
KPD2 191324Z 32006KT M02/M05 A3024 RMK A01 T10191052  RH  078%=      5-min Rain = 0
KPD2 191325Z 31007KT M02/M05 A3024 RMK A01 T10201052  RH  078%=      5-min Rain = 0
KPD2 191326Z 32006KT M02/M05 A3024 RMK A01 T10201052  RH  078%=      5-min Rain = 0
KPD2 191327Z 31008KT M02/M05 A3025 RMK A01 T10201053  RH  078%=      5-min Rain = 0
KPD2 191328Z 31008KT M02/M05 A3024 RMK A01 T10201052  RH  079%=      5-min Rain = 0
KPD2 191329Z 32007KT M02/M05 A3025 RMK A01 T10201052  RH  079%=      5-min Rain = 0
KPD2 191330Z 31009KT M02/M05 A3025 RMK A01 T10201052  RH  079%=      5-min Rain = 0
KPD2 191331Z 31007KT M02/M05 A3025 RMK A01 T10201052  RH  079%=      5-min Rain = 0
KPD2 191332Z 31007KT M02/M05 A3024 RMK A01 T10201052  RH  078%=      5-min Rain = 0
KPD2 191333Z 31005KT M02/M05 A3024 RMK A01 T10201053  RH  078%=      5-min Rain = 0
KPD2 191334Z 33009G15KT M02/M05 A3025 RMK A01 T10201053  RH  078%=      5-min Rain = 0
KPD2 191335Z 32009G15KT M02/M05 A3025 RMK A01 T10211053  RH  079%=      5-min Rain = 0
KPD2 191336Z 33008KT M02/M05 A3025 RMK A01 T10201052  RH  079%=      5-min Rain = 0
KPD2 191337Z 32006KT M02/M05 A3025 RMK A01 T10201052  RH  078%=      5-min Rain = 0
KPD2 191338Z 32009KT M02/M05 A3025 RMK A01 T10201053  RH  078%=      5-min Rain = 0
KPD2 191339Z 31007KT M02/M05 A3025 RMK A01 T10201053  RH  078%=      5-min Rain = 0
KPD2 191340Z 31006G11KT M02/M05 A3025 RMK A01 T10201053  RH  078%=      5-min Rain = 0
KPD2 191341Z 32011G16KT M02/M05 A3025 RMK A01 T10201053  RH  078%=      5-min Rain = 0
KPD2 191342Z 31007KT M02/M05 A3025 RMK A01 T10201052  RH  078%=      5-min Rain = 0
KPD2 191343Z 32006KT M02/M05 A3025 RMK A01 T10191052  RH  078%=      5-min Rain = 0
KPD2 191344Z 31008KT M02/M05 A3025 RMK A01 T10201053  RH  078%=      5-min Rain = 0
KPD2 191345Z 31008KT M02/M05 A3025 RMK A01 T10201053  RH  078%=      5-min Rain = 0
KPD2 191346Z 31007KT M02/M05 A3025 RMK A01 T10201053  RH  078%=      5-min Rain = 0
KPD2 191347Z 30008KT M02/M05 A3025 RMK A01 T10191052  RH  078%=      5-min Rain = 0
KPD2 191348Z 31009KT M02/M05 A3025 RMK A01 T10191052  RH  078%=      5-min Rain = 0
KPD2 191349Z 30007KT M02/M05 A3025 RMK A01 T10191052  RH  078%=      5-min Rain = 0
KPD2 191350Z 31008KT M02/M05 A3025 RMK A01 T10191052  RH  078%=      5-min Rain = 0
KPD2 191351Z 30008KT M02/M05 A3025 RMK A01 T10191052  RH  078%=      5-min Rain = 0
KPD2 191352Z 31009KT M02/M05 A3025 RMK A01 T10191052  RH  078%=      5-min Rain = 0
KPD2 191353Z 31008KT M02/M05 A3025 RMK A01 T10191052  RH  078%=      5-min Rain = 0
KPD2 191354Z 31008KT M02/M05 A3025 RMK A01 T10191052  RH  078%=      5-min Rain = 0
KPD2 191355Z 31008KT M02/M05 A3025 RMK A01 T10191052  RH  078%=      5-min Rain = 0
KPD2 191356Z 31009KT M02/M05 A3025 RMK A01 T10191052  RH  078%=      5-min Rain = 0
KPD2 191357Z 30009KT M02/M05 A3026 RMK A01 T10191052  RH  078%=      5-min Rain = 0
KPD2 191358Z 31010KT M02/M05 A3026 RMK A01 T10181052  RH  078%=      5-min Rain = 0
KPD2 191359Z 31009KT M02/M05 A3026 RMK A01 T10181052  RH  078%=      5-min Rain = 0
KPD2 191400Z 31008KT M02/M05 A3026 RMK A01 T10181051  RH  078%=      5-min Rain = 0
KPD2 191401Z 31008KT M02/M05 A3026 RMK A01 T10181052  RH  078%=      5-min Rain = 0
KPD2 191402Z 30008KT M02/M05 A3026 RMK A01 T10191052  RH  078%=      5-min Rain = 0
KPD2 191403Z 31008KT M02/M05 A3026 RMK A01 T10191052  RH  078%=      5-min Rain = 0
KPD2 191404Z 31008G13KT M02/M05 A3026 RMK A01 T10191052  RH  078%=      5-min Rain = 0
KPD2 191405Z 30011KT M02/M05 A3026 RMK A01 T10191053  RH  078%=      5-min Rain = 0
KPD2 191406Z 31009KT M02/M05 A3026 RMK A01 T10201053  RH  078%=      5-min Rain = 0
KPD2 191407Z 30008KT M02/M05 A3026 RMK A01 T10201053  RH  078%=      5-min Rain = 0
KPD2 191408Z 31009KT M02/M05 A3026 RMK A01 T10201053  RH  078%=      5-min Rain = 0
KPD2 191409Z 31008KT M02/M05 A3026 RMK A01 T10201053  RH  078%=      5-min Rain = 0
KPD2 191410Z 30009KT M02/M05 A3026 RMK A01 T10201052  RH  078%=      5-min Rain = 0
KPD2 191411Z 31008KT M02/M05 A3027 RMK A01 T10201053  RH  078%=      5-min Rain = 0
KPD2 191412Z 32007KT M02/M05 A3027 RMK A01 T10191052  RH  078%=      5-min Rain = 0
KPD2 191413Z 31008KT M02/M05 A3027 RMK A01 T10191053  RH  078%=      5-min Rain = 0
KPD2 191414Z 31008KT M02/M05 A3027 RMK A01 T10201053  RH  078%=      5-min Rain = 0
KPD2 191415Z 31005KT M02/M05 A3027 RMK A01 T10201053  RH  078%=      5-min Rain = 0
KPD2 191416Z 30006KT M02/M05 A3027 RMK A01 T10201053  RH  078%=      5-min Rain = 0
KPD2 191417Z 30008KT M02/M05 A3027 RMK A01 T10201053  RH  078%=      5-min Rain = 0
KPD2 191418Z 30006KT M02/M05 A3027 RMK A01 T10201053  RH  078%=      5-min Rain = 0
KPD2 191419Z 31007KT M02/M05 A3027 RMK A01 T10201053  RH  078%=      5-min Rain = 0
KPD2 191420Z 30005KT M02/M05 A3027 RMK A01 T10201053  RH  078%=      5-min Rain = 0
KPD2 191421Z 31007KT M02/M05 A3027 RMK A01 T10211053  RH  078%=      5-min Rain = 0
KPD2 191422Z 31008KT M02/M05 A3027 RMK A01 T10211054  RH  078%=      5-min Rain = 0
KPD2 191423Z 30008KT M02/M05 A3028 RMK A01 T10211053  RH  078%=      5-min Rain = 0
KPD2 191424Z 29008KT M02/M05 A3028 RMK A01 T10211053  RH  078%=      5-min Rain = 0
KPD2 191425Z 30009KT M02/M05 A3028 RMK A01 T10211054  RH  078%=      5-min Rain = 0
KPD2 191426Z 30008KT M02/M05 A3028 RMK A01 T10201054  RH  078%=      5-min Rain = 0
KPD2 191427Z 30008KT M02/M05 A3028 RMK A01 T10201054  RH  078%=      5-min Rain = 0
KPD2 191428Z 30010KT M02/M05 A3028 RMK A01 T10201054  RH  078%=      5-min Rain = 0
KPD2 191429Z 31005G10KT M02/M05 A3028 RMK A01 T10201054  RH  078%=      5-min Rain = 0
KPD2 191430Z 30005KT M02/M05 A3028 RMK A01 T10201054  RH  078%=      5-min Rain = 0
KPD2 191431Z 30007KT M02/M05 A3028 RMK A01 T10201054  RH  078%=      5-min Rain = 0
KPD2 191432Z 31007KT M02/M05 A3028 RMK A01 T10201054  RH  078%=      5-min Rain = 0
KPD2 191433Z 30008KT M02/M05 A3028 RMK A01 T10201054  RH  078%=      5-min Rain = 0
KPD2 191434Z 30009KT M02/M05 A3028 RMK A01 T10191054  RH  077%=      5-min Rain = 0
KPD2 191435Z 31008KT M02/M05 A3028 RMK A01 T10191054  RH  077%=      5-min Rain = 0
KPD2 191436Z 31008KT M02/M05 A3029 RMK A01 T10191054  RH  077%=      5-min Rain = 0
KPD2 191437Z 30007KT M02/M05 A3029 RMK A01 T10181053  RH  077%=      5-min Rain = 0
KPD2 191438Z 30008KT M02/M05 A3029 RMK A01 T10181054  RH  077%=      5-min Rain = 0
KPD2 191439Z 31009KT M02/M05 A3029 RMK A01 T10181054  RH  077%=      5-min Rain = 0
KPD2 191440Z 31009KT M02/M05 A3029 RMK A01 T10181054  RH  076%=      5-min Rain = 0
KPD2 191441Z 31008KT M02/M05 A3029 RMK A01 T10171054  RH  076%=      5-min Rain = 0
KPD2 191442Z 30008KT M02/M05 A3029 RMK A01 T10171054  RH  076%=      5-min Rain = 0
KPD2 191443Z 30009KT M02/M05 A3029 RMK A01 T10171054  RH  076%=      5-min Rain = 0
KPD2 191444Z 30008KT M02/M05 A3029 RMK A01 T10171054  RH  076%=      5-min Rain = 0
KPD2 191445Z 30009KT M02/M05 A3029 RMK A01 T10171054  RH  076%=      5-min Rain = 0
KPD2 191446Z 31007KT M02/M05 A3029 RMK A01 T10161054  RH  076%=      5-min Rain = 0
KPD2 191447Z 30007KT M02/M05 A3029 RMK A01 T10161054  RH  076%=      5-min Rain = 0
KPD2 191448Z 31007KT M02/M05 A3029 RMK A01 T10161053  RH  076%=      5-min Rain = 0
KPD2 191449Z 30008KT M02/M05 A3029 RMK A01 T10151052  RH  076%=      5-min Rain = 0
KPD2 191450Z 30007KT M02/M05 A3029 RMK A01 T10151052  RH  075%=      5-min Rain = 0
KPD2 191451Z 30008KT M01/M05 A3029 RMK A01 T10141052  RH  075%=      5-min Rain = 0
KPD2 191452Z 30006KT M01/M05 A303 RMK A01 T10141052  RH  075%=      5-min Rain = 0
KPD2 191453Z 30009KT M01/M05 A303 RMK A01 T10131052  RH  075%=      5-min Rain = 0
KPD2 191454Z 30006KT M01/M05 A303 RMK A01 T10131052  RH  075%=      5-min Rain = 0
KPD2 191455Z 31010KT M01/M05 A303 RMK A01 T10121051  RH  075%=      5-min Rain = 0
KPD2 191456Z 30009KT M01/M05 A303 RMK A01 T10121052  RH  074%=      5-min Rain = 0
KPD2 191457Z 29007KT M01/M05 A303 RMK A01 T10121052  RH  074%=      5-min Rain = 0
KPD2 191458Z 30009KT M01/M05 A303 RMK A01 T10111052  RH  074%=      5-min Rain = 0
KPD2 191459Z 30007KT M01/M05 A303 RMK A01 T10111051  RH  074%=      5-min Rain = 0
KPD2 191500Z 30008KT M01/M05 A303 RMK A01 T10111052  RH  074%=      5-min Rain = 0
KPD2 191501Z 30010KT M01/M05 A303 RMK A01 T10101051  RH  074%=      5-min Rain = 0
KPD2 191502Z 30008KT M01/M05 A303 RMK A01 T10091050  RH  073%=      5-min Rain = 0
KPD2 191503Z 30008KT M01/M05 A303 RMK A01 T10081050  RH  073%=      5-min Rain = 0
KPD2 191504Z 30008KT M01/M05 A303 RMK A01 T10071049  RH  073%=      5-min Rain = 0
KPD2 191505Z 31008KT M01/M05 A303 RMK A01 T10071049  RH  073%=      5-min Rain = 0
KPD2 191506Z 31007KT M01/M05 A303 RMK A01 T10061049  RH  073%=      5-min Rain = 0
KPD2 191507Z 32008KT M01/M05 A303 RMK A01 T10061048  RH  073%=      5-min Rain = 0
KPD2 191508Z 32008KT M01/M05 A303 RMK A01 T10051049  RH  072%=      5-min Rain = 0
KPD2 191509Z 31008G13KT M00/M05 A303 RMK A01 T10041048  RH  072%=      5-min Rain = 0
KPD2 191510Z 32008KT M00/M05 A303 RMK A01 T10041048  RH  072%=      5-min Rain = 0
KPD2 191511Z 32006KT M00/M05 A303 RMK A01 T10031048  RH  072%=      5-min Rain = 0
KPD2 191512Z 31009KT M00/M05 A303 RMK A01 T10031047  RH  072%=      5-min Rain = 0
KPD2 191513Z 31008KT M00/M05 A303 RMK A01 T10021046  RH  072%=      5-min Rain = 0
KPD2 191514Z 32011KT M00/M05 A303 RMK A01 T10011046  RH  071%=      5-min Rain = 0
KPD2 191515Z 33012KT M00/M05 A303 RMK A01 T10011047  RH  071%=      5-min Rain = 0
KPD2 191516Z 32010KT M00/M05 A3031 RMK A01 T10011047  RH  071%=      5-min Rain = 0
KPD2 191517Z 31011G17KT M00/M05 A3031 RMK A01 T10011046  RH  071%=      5-min Rain = 0
KPD2 191518Z 33009KT 00/05 A3031 RMK A01 T00-00-46  RH  071%=      5-min Rain = 0
KPD2 191519Z 32010G17KT 00/05 A3031 RMK A01 T00000-46  RH  071%=      5-min Rain = 0
KPD2 191520Z 32013KT 00/M05 A3031 RMK A01 T00011046  RH  071%=      5-min Rain = 0
KPD2 191521Z 32009KT 00/M05 A3031 RMK A01 T00011047  RH  070%=      5-min Rain = 0
KPD2 191522Z 31011KT 00/M05 A303 RMK A01 T00011046  RH  070%=      5-min Rain = 0
KPD2 191523Z 32009KT 00/M05 A3031 RMK A01 T00021046  RH  070%=      5-min Rain = 0
KPD2 191524Z 32011KT 00/M05 A303 RMK A01 T00021045  RH  071%=      5-min Rain = 0
KPD2 191525Z 34014KT 00/M05 A3031 RMK A01 T00031045  RH  070%=      5-min Rain = 0
KPD2 191526Z 33010KT 00/M05 A3031 RMK A01 T00031046  RH  070%=      5-min Rain = 0
KPD2 191527Z 32010KT 00/M05 A3031 RMK A01 T00031046  RH  070%=      5-min Rain = 0
KPD2 191528Z 32014KT 00/M05 A3031 RMK A01 T00031045  RH  070%=      5-min Rain = 0
KPD2 191529Z 33010G15KT 00/M05 A3031 RMK A01 T00031046  RH  070%=      5-min Rain = 0
KPD2 191530Z 31008KT 00/M05 A3031 RMK A01 T00031046  RH  070%=      5-min Rain = 0
KPD2 191531Z 33008KT 01/M04 A3031 RMK A01 T00051043  RH  070%=      5-min Rain = 0
KPD2 191532Z 33007KT 01/M04 A3031 RMK A01 T00061043  RH  070%=      5-min Rain = 0
KPD2 191533Z 32010KT 01/M04 A3031 RMK A01 T00071042  RH  070%=      5-min Rain = 0
KPD2 191534Z 32012G17KT 01/M04 A3031 RMK A01 T00071043  RH  069%=      5-min Rain = 0
KPD2 191535Z 31009G14KT 01/M04 A3031 RMK A01 T00071044  RH  069%=      5-min Rain = 0
KPD2 191536Z 32013KT 01/M05 A3031 RMK A01 T00071045  RH  068%=      5-min Rain = 0
KPD2 191537Z 33011KT 01/M05 A3031 RMK A01 T00061045  RH  068%=      5-min Rain = 0
KPD2 191538Z 31012G17KT 01/M05 A3031 RMK A01 T00061045  RH  069%=      5-min Rain = 0
KPD2 191539Z 32013KT 01/M05 A3031 RMK A01 T00061045  RH  069%=      5-min Rain = 0
KPD2 191540Z 33012KT 01/M05 A3031 RMK A01 T00061045  RH  069%=      5-min Rain = 0
KPD2 191541Z 33010KT 01/M05 A3031 RMK A01 T00061046  RH  068%=      5-min Rain = 0
KPD2 191542Z 31012KT 01/M05 A3031 RMK A01 T00061045  RH  069%=      5-min Rain = 0
KPD2 191543Z 33014G19KT 01/M04 A3031 RMK A01 T00071044  RH  069%=      5-min Rain = 0
KPD2 191544Z 33009KT 01/M05 A3031 RMK A01 T00071045  RH  068%=      5-min Rain = 0
KPD2 191545Z 33010KT 01/M04 A3031 RMK A01 T00081044  RH  068%=      5-min Rain = 0
KPD2 191546Z 33008G14KT 01/M04 A3031 RMK A01 T00091043  RH  068%=      5-min Rain = 0
KPD2 191547Z 32011KT 01/M04 A3031 RMK A01 T00101042  RH  068%=      5-min Rain = 0
KPD2 191548Z 33011KT 01/M04 A3031 RMK A01 T00101043  RH  068%=      5-min Rain = 0
KPD2 191549Z 33010KT 01/M04 A3032 RMK A01 T00101043  RH  068%=      5-min Rain = 0
KPD2 191550Z 33008KT 01/M04 A3032 RMK A01 T00101043  RH  068%=      5-min Rain = 0
KPD2 191551Z 32006KT 01/M04 A3032 RMK A01 T00111042  RH  068%=      5-min Rain = 0
KPD2 191552Z 32009KT 01/M04 A3032 RMK A01 T00131039  RH  068%=      5-min Rain = 0
KPD2 191553Z 33013G19KT 01/M04 A3032 RMK A01 T00141041  RH  067%=      5-min Rain = 0
KPD2 191554Z 33014KT 01/M04 A3031 RMK A01 T00121043  RH  067%=      5-min Rain = 0
KPD2 191555Z 33011G16KT 01/M04 A3032 RMK A01 T00111043  RH  067%=      5-min Rain = 0
KPD2 191556Z 32011G16KT 01/M04 A3032 RMK A01 T00111043  RH  067%=      5-min Rain = 0
KPD2 191557Z 32010KT 01/M04 A3032 RMK A01 T00121042  RH  067%=      5-min Rain = 0
KPD2 191558Z 32011KT 01/M04 A3032 RMK A01 T00121041  RH  067%=      5-min Rain = 0
KPD2 191559Z 33012G19KT 01/M04 A3032 RMK A01 T00131041  RH  067%=      5-min Rain = 0
KPD2 191600Z 33012KT 01/M04 A3032 RMK A01 T00141041  RH  067%=      5-min Rain = 0
KPD2 191601Z 34013G18KT 01/M04 A3032 RMK A01 T00141041  RH  067%=      5-min Rain = 0
KPD2 191602Z 33010G16KT 01/M04 A3032 RMK A01 T00131042  RH  066%=      5-min Rain = 0
KPD2 191603Z 32017G22KT 01/M04 A3032 RMK A01 T00131041  RH  067%=      5-min Rain = 0
KPD2 191604Z 33015G22KT 01/M04 A3032 RMK A01 T00131043  RH  066%=      5-min Rain = 0
KPD2 191605Z 33015KT 01/M04 A3032 RMK A01 T00121043  RH  067%=      5-min Rain = 0
KPD2 191606Z 34010KT 01/M04 A3032 RMK A01 T00121043  RH  067%=      5-min Rain = 0
KPD2 191607Z 34010KT 01/M04 A3032 RMK A01 T00131040  RH  068%=      5-min Rain = 0
KPD2 191608Z 34010KT 01/M04 A3032 RMK A01 T00141040  RH  067%=      5-min Rain = 0
KPD2 191609Z 32007G14KT 02/M04 A3032 RMK A01 T00151041  RH  067%=      5-min Rain = 0
KPD2 191610Z 32013G19KT 02/M04 A3032 RMK A01 T00161039  RH  067%=      5-min Rain = 0
KPD2 191611Z 32013G19KT 02/M04 A3032 RMK A01 T00171040  RH  066%=      5-min Rain = 0
KPD2 191612Z 33017KT 02/M04 A3032 RMK A01 T00161041  RH  066%=      5-min Rain = 0
KPD2 191613Z 32017KT 02/M04 A3032 RMK A01 T00151042  RH  066%=      5-min Rain = 0
KPD2 191614Z 33014G20KT 01/M04 A3032 RMK A01 T00141042  RH  066%=      5-min Rain = 0
KPD2 191615Z 32013KT 01/M04 A3032 RMK A01 T00141041  RH  067%=      5-min Rain = 0
KPD2 191616Z 33012KT 01/M04 A3032 RMK A01 T00131042  RH  067%=      5-min Rain = 0
KPD2 191617Z 33011G17KT 02/M04 A3033 RMK A01 T00151039  RH  067%=      5-min Rain = 0
KPD2 191618Z 34012G17KT 02/M04 A3033 RMK A01 T00161039  RH  067%=      5-min Rain = 0
KPD2 191619Z 35008KT 02/M04 A3033 RMK A01 T00151041  RH  067%=      5-min Rain = 0
KPD2 191620Z 33007KT 02/M04 A3033 RMK A01 T00161038  RH  067%=      5-min Rain = 0
KPD2 191621Z 32010KT 02/M04 A3033 RMK A01 T00181036  RH  067%=      5-min Rain = 0
KPD2 191622Z 34007KT 02/M04 A3033 RMK A01 T00191038  RH  066%=      5-min Rain = 0
KPD2 191623Z 33015G20KT 02/M04 A3033 RMK A01 T00201037  RH  066%=      5-min Rain = 0
KPD2 191624Z 33013KT 02/M04 A3033 RMK A01 T00191041  RH  065%=      5-min Rain = 0
KPD2 191625Z 35014G20KT 02/M04 A3033 RMK A01 T00171042  RH  065%=      5-min Rain = 0
KPD2 191626Z 33013KT 02/M04 A3033 RMK A01 T00161041  RH  066%=      5-min Rain = 0
KPD2 191627Z 32013KT 02/M04 A3033 RMK A01 T00151042  RH  065%=      5-min Rain = 0
KPD2 191628Z 35016KT 02/M04 A3033 RMK A01 T00151042  RH  066%=      5-min Rain = 0
KPD2 191629Z 34012G17KT 02/M04 A3034 RMK A01 T00151041  RH  066%=      5-min Rain = 0
KPD2 191630Z 35013KT 02/M04 A3034 RMK A01 T00171038  RH  067%=      5-min Rain = 0
KPD2 191631Z 32009KT 02/M04 A3034 RMK A01 T00181039  RH  066%=      5-min Rain = 0
KPD2 191632Z 32007KT 02/M04 A3034 RMK A01 T00191037  RH  066%=      5-min Rain = 0
KPD2 191633Z 32008G13KT 02/M04 A3034 RMK A01 T00211036  RH  066%=      5-min Rain = 0
KPD2 191634Z 32011KT 02/M04 A3034 RMK A01 T00231036  RH  065%=      5-min Rain = 0
KPD2 191635Z 32011G16KT 02/M04 A3034 RMK A01 T00231037  RH  064%=      5-min Rain = 0
KPD2 191636Z 33013G19KT 02/M04 A3034 RMK A01 T00221039  RH  064%=      5-min Rain = 0
KPD2 191637Z 34013G20KT 02/M04 A3034 RMK A01 T00221039  RH  064%=      5-min Rain = 0
KPD2 191638Z 34016G21KT 02/M04 A3034 RMK A01 T00221039  RH  064%=      5-min Rain = 0
KPD2 191639Z 33013G18KT 02/M04 A3034 RMK A01 T00201041  RH  064%=      5-min Rain = 0
KPD2 191640Z 33014KT 02/M04 A3034 RMK A01 T00201039  RH  065%=      5-min Rain = 0
KPD2 191641Z 33014G19KT 02/M04 A3034 RMK A01 T00201039  RH  065%=      5-min Rain = 0
KPD2 191642Z 34016KT 02/M04 A3034 RMK A01 T00201039  RH  065%=      5-min Rain = 0
KPD2 191643Z 35013G18KT 02/M04 A3034 RMK A01 T00201038  RH  065%=      5-min Rain = 0
KPD2 191644Z 33008KT 02/M04 A3034 RMK A01 T00211036  RH  066%=      5-min Rain = 0
KPD2 191645Z 34009G14KT 02/M03 A3034 RMK A01 T00241033  RH  066%=      5-min Rain = 0
KPD2 191646Z 33007G12KT 03/M04 A3034 RMK A01 T00261035  RH  064%=      5-min Rain = 0
KPD2 191647Z 34012KT 03/M03 A3034 RMK A01 T00271033  RH  064%=      5-min Rain = 0
KPD2 191648Z 34011KT 03/M04 A3034 RMK A01 T00281035  RH  063%=      5-min Rain = 0
KPD2 191649Z 33008KT 03/M04 A3034 RMK A01 T00271036  RH  063%=      5-min Rain = 0
KPD2 191650Z 34008KT 03/M03 A3034 RMK A01 T00281033  RH  064%=      5-min Rain = 0
KPD2 191651Z 34008KT 03/M03 A3034 RMK A01 T00301032  RH  063%=      5-min Rain = 0
KPD2 191652Z 35008KT 03/M03 A3035 RMK A01 T00311033  RH  063%=      5-min Rain = 0
KPD2 191653Z 34010G15KT 03/M03 A3034 RMK A01 T00321032  RH  063%=      5-min Rain = 0
KPD2 191654Z 33011KT 03/M03 A3034 RMK A01 T00311034  RH  062%=      5-min Rain = 0
KPD2 191655Z 34015KT 03/M03 A3034 RMK A01 T00311034  RH  062%=      5-min Rain = 0
KPD2 191656Z 33013KT 03/M04 A3034 RMK A01 T00291036  RH  062%=      5-min Rain = 0
KPD2 191657Z 34008KT 03/M03 A3034 RMK A01 T00281034  RH  063%=      5-min Rain = 0
KPD2 191658Z 33008KT 03/M03 A3034 RMK A01 T00301032  RH  064%=      5-min Rain = 0
KPD2 191659Z 34014KT 03/M03 A3034 RMK A01 T00311032  RH  063%=      5-min Rain = 0
KPD2 191700Z 34013G18KT 03/M04 A3034 RMK A01 T00291036  RH  062%=      5-min Rain = 0
KPD2 191701Z 35013KT 03/M04 A3034 RMK A01 T00281036  RH  063%=      5-min Rain = 0
KPD2 191702Z 36010KT 03/M03 A3034 RMK A01 T00281033  RH  064%=      5-min Rain = 0
KPD2 191703Z 35009KT 03/M03 A3034 RMK A01 T00301031  RH  064%=      5-min Rain = 0
KPD2 191704Z 35012KT 03/M03 A3034 RMK A01 T00331031  RH  063%=      5-min Rain = 0
KPD2 191705Z 35010G15KT 03/M03 A3034 RMK A01 T00331032  RH  062%=      5-min Rain = 0
KPD2 191706Z 34008G14KT 03/M03 A3034 RMK A01 T00341031  RH  063%=      5-min Rain = 0
KPD2 191707Z 34010KT 04/M03 A3034 RMK A01 T00351031  RH  062%=      5-min Rain = 0
KPD2 191708Z 34009KT 04/M03 A3034 RMK A01 T00351030  RH  062%=      5-min Rain = 0
KPD2 191709Z 35010KT 04/M03 A3034 RMK A01 T00361031  RH  061%=      5-min Rain = 0
KPD2 191710Z 35011KT 04/M03 A3034 RMK A01 T00351033  RH  061%=      5-min Rain = 0
KPD2 191711Z 34013G21KT 03/M03 A3034 RMK A01 T00341033  RH  061%=      5-min Rain = 0
KPD2 191712Z 32014KT 03/M04 A3034 RMK A01 T00331035  RH  061%=      5-min Rain = 0
KPD2 191713Z 32013KT 03/M04 A3034 RMK A01 T00301038  RH  061%=      5-min Rain = 0
KPD2 191714Z 34010G15KT 03/M04 A3034 RMK A01 T00281038  RH  062%=      5-min Rain = 0
KPD2 191715Z 34011G19KT 03/M03 A3034 RMK A01 T00291034  RH  063%=      5-min Rain = 0
KPD2 191716Z 34018KT 03/M03 A3034 RMK A01 T00311033  RH  063%=      5-min Rain = 0
KPD2 191717Z 33012KT 03/M04 A3034 RMK A01 T00301035  RH  062%=      5-min Rain = 0
KPD2 191718Z 33010KT 03/M04 A3034 RMK A01 T00301035  RH  062%=      5-min Rain = 0
KPD2 191719Z 34010KT 03/M03 A3034 RMK A01 T00311032  RH  063%=      5-min Rain = 0
KPD2 191720Z 35009G14KT 03/M03 A3034 RMK A01 T00341030  RH  063%=      5-min Rain = 0
KPD2 191721Z 35011KT 04/M03 A3034 RMK A01 T00351031  RH  062%=      5-min Rain = 0
KPD2 191722Z 36012G19KT 04/M03 A3034 RMK A01 T00351031  RH  062%=      5-min Rain = 0
KPD2 191723Z 36012KT 04/M03 A3034 RMK A01 T00361032  RH  061%=      5-min Rain = 0
KPD2 191724Z 35010KT 04/M03 A3034 RMK A01 T00351032  RH  061%=      5-min Rain = 0
KPD2 191725Z 36012KT 04/M03 A3034 RMK A01 T00351033  RH  061%=      5-min Rain = 0
KPD2 191726Z 34011KT 04/M03 A3034 RMK A01 T00351032  RH  062%=      5-min Rain = 0
KPD2 191727Z 33011KT 04/M03 A3034 RMK A01 T00351033  RH  061%=      5-min Rain = 0
KPD2 191728Z 34011G16KT 03/M03 A3034 RMK A01 T00341032  RH  062%=      5-min Rain = 0
KPD2 191729Z 34011KT 04/M03 A3034 RMK A01 T00361032  RH  061%=      5-min Rain = 0
KPD2 191730Z 33013KT 04/M03 A3034 RMK A01 T00361032  RH  061%=      5-min Rain = 0
KPD2 191731Z 35009G14KT 04/M03 A3034 RMK A01 T00351034  RH  061%=      5-min Rain = 0
KPD2 191732Z 33007KT 04/M03 A3034 RMK A01 T00351032  RH  062%=      5-min Rain = 0
KPD2 191733Z 33009KT 04/M03 A3034 RMK A01 T00351032  RH  061%=      5-min Rain = 0
KPD2 191734Z 33014KT 03/M03 A3035 RMK A01 T00341033  RH  061%=      5-min Rain = 0
KPD2 191735Z 34015KT 03/M03 A3035 RMK A01 T00341034  RH  061%=      5-min Rain = 0
KPD2 191736Z 34012KT 03/M04 A3035 RMK A01 T00311036  RH  061%=      5-min Rain = 0
KPD2 191737Z 35011G16KT 03/M03 A3035 RMK A01 T00311034  RH  062%=      5-min Rain = 0
KPD2 191738Z 00013KT 03/M03 A3035 RMK A01 T00331031  RH  063%=      5-min Rain = 0
KPD2 191739Z 35010KT 03/M03 A3035 RMK A01 T00341033  RH  061%=      5-min Rain = 0
KPD2 191740Z 35008KT 03/M03 A3035 RMK A01 T00341033  RH  062%=      5-min Rain = 0
KPD2 191741Z 32014KT 04/M03 A3035 RMK A01 T00351032  RH  062%=      5-min Rain = 0
KPD2 191742Z 31013G20KT 03/M03 A3035 RMK A01 T00341034  RH  061%=      5-min Rain = 0
KPD2 191743Z 34017KT 03/M04 A3035 RMK A01 T00331035  RH  061%=      5-min Rain = 0
KPD2 191744Z 34013KT 03/M04 A3035 RMK A01 T00321035  RH  061%=      5-min Rain = 0
KPD2 191745Z 33015KT 03/M03 A3035 RMK A01 T00321034  RH  062%=      5-min Rain = 0
KPD2 191746Z 34010KT 03/M03 A3035 RMK A01 T00321033  RH  062%=      5-min Rain = 0
KPD2 191747Z 36012G17KT 03/M03 A3034 RMK A01 T00341031  RH  062%=      5-min Rain = 0
KPD2 191748Z 00014G19KT 04/M03 A3035 RMK A01 T00371029  RH  062%=      5-min Rain = 0
KPD2 191749Z 33009KT 04/M03 A3035 RMK A01 T00371032  RH  061%=      5-min Rain = 0
KPD2 191750Z 34014G19KT 04/M03 A3035 RMK A01 T00361032  RH  061%=      5-min Rain = 0
KPD2 191751Z 34014G19KT 04/M03 A3035 RMK A01 T00371032  RH  061%=      5-min Rain = 0
KPD2 191752Z 33010G17KT 04/M03 A3034 RMK A01 T00361033  RH  061%=      5-min Rain = 0
KPD2 191753Z 34015KT 04/M03 A3034 RMK A01 T00361031  RH  062%=      5-min Rain = 0
KPD2 191754Z 34011KT 04/M03 A3034 RMK A01 T00371031  RH  061%=      5-min Rain = 0
KPD2 191755Z 33012KT 04/M03 A3035 RMK A01 T00391029  RH  061%=      5-min Rain = 0
KPD2 191756Z 33009G15KT 04/M03 A3035 RMK A01 T00401029  RH  061%=      5-min Rain = 0
KPD2 191757Z 35012KT 04/M03 A3035 RMK A01 T00411028  RH  061%=      5-min Rain = 0
KPD2 191758Z 34008KT 04/M03 A3035 RMK A01 T00411030  RH  060%=      5-min Rain = 0
KPD2 191759Z 35009G14KT 04/M03 A3035 RMK A01 T00421026  RH  061%=      5-min Rain = 0
KPD2 191800Z 33010KT 04/M03 A3035 RMK A01 T00441026  RH  060%=      5-min Rain = 0
KPD2 191801Z 32014KT 05/M03 A3034 RMK A01 T00451028  RH  059%=      5-min Rain = 0
KPD2 191802Z 34014G19KT 04/M03 A3034 RMK A01 T00421032  RH  059%=      5-min Rain = 0
KPD2 191803Z 33017KT 04/M03 A3034 RMK A01 T00381034  RH  059%=      5-min Rain = 0
KPD2 191804Z 34015G21KT 04/M03 A3034 RMK A01 T00361034  RH  060%=      5-min Rain = 0
KPD2 191805Z 33012G17KT 04/M03 A3034 RMK A01 T00371031  RH  061%=      5-min Rain = 0
KPD2 191806Z 33011G16KT 04/M03 A3034 RMK A01 T00371031  RH  061%=      5-min Rain = 0
KPD2 191807Z 34014KT 04/M03 A3034 RMK A01 T00371031  RH  061%=      5-min Rain = 0
KPD2 191808Z 34014G21KT 04/M03 A3034 RMK A01 T00381030  RH  061%=      5-min Rain = 0
KPD2 191809Z 35009KT 04/M03 A3034 RMK A01 T00381032  RH  060%=      5-min Rain = 0
KPD2 191810Z 34012KT 04/M03 A3034 RMK A01 T00391029  RH  061%=      5-min Rain = 0
KPD2 191811Z 34012KT 04/M03 A3034 RMK A01 T00391031  RH  060%=      5-min Rain = 0
KPD2 191812Z 31011KT 04/M03 A3034 RMK A01 T00381030  RH  061%=      5-min Rain = 0
KPD2 191813Z 33008KT 04/M03 A3034 RMK A01 T00391028  RH  062%=      5-min Rain = 0
KPD2 191814Z 33008G13KT 04/M03 A3034 RMK A01 T00431025  RH  061%=      5-min Rain = 0
KPD2 191815Z 31011KT 05/M02 A3034 RMK A01 T00461024  RH  061%=      5-min Rain = 0
KPD2 191816Z 35013KT 05/M03 A3034 RMK A01 T00471027  RH  059%=      5-min Rain = 0
KPD2 191817Z 35014KT 04/M03 A3034 RMK A01 T00431031  RH  059%=      5-min Rain = 0
KPD2 191818Z 34010G16KT 04/M03 A3033 RMK A01 T00421030  RH  059%=      5-min Rain = 0
KPD2 191819Z 29010KT 04/M03 A3033 RMK A01 T00441027  RH  060%=      5-min Rain = 0
KPD2 191820Z 32008G13KT 05/M03 A3033 RMK A01 T00451029  RH  059%=      5-min Rain = 0
KPD2 191821Z 33008KT 05/M03 A3033 RMK A01 T00471025  RH  059%=      5-min Rain = 0
KPD2 191822Z 32008G13KT 05/M02 A3033 RMK A01 T00521023  RH  059%=      5-min Rain = 0
KPD2 191823Z 32013KT 05/M02 A3033 RMK A01 T00541024  RH  057%=      5-min Rain = 0
KPD2 191824Z 33011G17KT 05/M03 A3033 RMK A01 T00531028  RH  056%=      5-min Rain = 0
KPD2 191825Z 30010KT 05/M03 A3033 RMK A01 T00501030  RH  056%=      5-min Rain = 0
KPD2 191826Z 29013KT 05/M03 A3033 RMK A01 T00481031  RH  057%=      5-min Rain = 0
KPD2 191827Z 29011G17KT 05/M03 A3033 RMK A01 T00451031  RH  058%=      5-min Rain = 0
KPD2 191828Z 31015KT 05/M03 A3033 RMK A01 T00451030  RH  058%=      5-min Rain = 0
KPD2 191829Z 34013KT 05/M03 A3033 RMK A01 T00451030  RH  058%=      5-min Rain = 0
KPD2 191830Z 33011G16KT 05/M03 A3033 RMK A01 T00451029  RH  059%=      5-min Rain = 0
KPD2 191831Z 33008KT 05/M02 A3033 RMK A01 T00501023  RH  059%=      5-min Rain = 0
KPD2 191832Z 33007KT 06/M02 A3033 RMK A01 T00571020  RH  058%=      5-min Rain = 0
KPD2 191833Z 31011KT 06/M02 A3032 RMK A01 T00571024  RH  056%=      5-min Rain = 0
KPD2 191834Z 30009KT 06/M03 A3032 RMK A01 T00571025  RH  056%=      5-min Rain = 0
KPD2 191835Z 30010KT 06/M03 A3032 RMK A01 T00561026  RH  055%=      5-min Rain = 0
KPD2 191836Z 30012G17KT 05/M03 A3032 RMK A01 T00541028  RH  055%=      5-min Rain = 0
KPD2 191837Z 30009KT 05/M03 A3032 RMK A01 T00531028  RH  056%=      5-min Rain = 0
KPD2 191838Z 32009KT 05/M03 A3032 RMK A01 T00541025  RH  057%=      5-min Rain = 0
KPD2 191839Z 31007KT 06/M03 A3032 RMK A01 T00561025  RH  056%=      5-min Rain = 0
KPD2 191840Z 30009G14KT 05/M03 A3032 RMK A01 T00541027  RH  056%=      5-min Rain = 0
KPD2 191841Z 32006KT 05/M03 A3032 RMK A01 T00541026  RH  056%=      5-min Rain = 0
KPD2 191842Z 31009KT 06/M02 A3032 RMK A01 T00571022  RH  057%=      5-min Rain = 0
KPD2 191843Z 31009KT 06/M02 A3032 RMK A01 T00601023  RH  055%=      5-min Rain = 0
KPD2 191844Z 30009G15KT 06/M03 A3032 RMK A01 T00581026  RH  055%=      5-min Rain = 0
KPD2 191845Z 31011G17KT 06/M03 A3032 RMK A01 T00571026  RH  055%=      5-min Rain = 0
KPD2 191846Z 32010KT 06/M03 A3032 RMK A01 T00571026  RH  055%=      5-min Rain = 0
KPD2 191847Z 32011G17KT 06/M03 A3032 RMK A01 T00561025  RH  056%=      5-min Rain = 0
KPD2 191848Z 32010KT 06/M02 A3032 RMK A01 T00591023  RH  056%=      5-min Rain = 0
KPD2 191849Z 32012KT 06/M03 A3031 RMK A01 T00591025  RH  055%=      5-min Rain = 0
KPD2 191850Z 35008KT 06/M03 A3031 RMK A01 T00571025  RH  056%=      5-min Rain = 0
KPD2 191851Z 32009KT 06/M02 A3031 RMK A01 T00571024  RH  056%=      5-min Rain = 0
KPD2 191852Z 31008G13KT 06/M02 A3031 RMK A01 T00581024  RH  055%=      5-min Rain = 0
KPD2 191853Z 32012KT 06/M02 A3031 RMK A01 T00601024  RH  055%=      5-min Rain = 0
KPD2 191854Z 33008KT 06/M03 A3031 RMK A01 T00591027  RH  054%=      5-min Rain = 0
KPD2 191855Z 33009KT 06/M03 A3031 RMK A01 T00571026  RH  055%=      5-min Rain = 0
KPD2 191856Z 33009KT 06/M03 A3031 RMK A01 T00571025  RH  055%=      5-min Rain = 0
KPD2 191857Z 32007KT 06/M03 A3031 RMK A01 T00581025  RH  055%=      5-min Rain = 0
KPD2 191858Z 32006G11KT 06/M02 A3031 RMK A01 T00601022  RH  056%=      5-min Rain = 0
KPD2 191859Z 32012G17KT 06/M02 A3031 RMK A01 T00641021  RH  054%=      5-min Rain = 0
KPD2 191900Z 34012KT 06/M02 A3031 RMK A01 T00631024  RH  054%=      5-min Rain = 0
KPD2 191901Z 34012KT 06/M02 A3031 RMK A01 T00631023  RH  054%=      5-min Rain = 0
KPD2 191902Z 32011KT 06/M03 A3031 RMK A01 T00611025  RH  054%=      5-min Rain = 0
KPD2 191903Z 34011KT 06/M03 A3031 RMK A01 T00601025  RH  054%=      5-min Rain = 0
KPD2 191904Z 33010G15KT 06/M02 A3031 RMK A01 T00601022  RH  055%=      5-min Rain = 0
KPD2 191905Z 32005KT 06/M02 A303 RMK A01 T00601024  RH  055%=      5-min Rain = 0
KPD2 191906Z 33004KT 06/M02 A303 RMK A01 T00611021  RH  056%=      5-min Rain = 0
KPD2 191907Z 34006KT 06/M02 A303 RMK A01 T00631021  RH  055%=      5-min Rain = 0
KPD2 191908Z 34010KT 07/M02 A303 RMK A01 T00661019  RH  055%=      5-min Rain = 0
KPD2 191909Z 33011KT 07/M02 A303 RMK A01 T00691018  RH  054%=      5-min Rain = 0
KPD2 191910Z 33010KT 07/M02 A303 RMK A01 T00701020  RH  053%=      5-min Rain = 0
KPD2 191911Z 33009KT 07/M02 A303 RMK A01 T00691021  RH  053%=      5-min Rain = 0
KPD2 191912Z 33009KT 07/M02 A303 RMK A01 T00691021  RH  053%=      5-min Rain = 0
KPD2 191913Z 32009G15KT 07/M02 A303 RMK A01 T00721018  RH  053%=      5-min Rain = 0
KPD2 191914Z 31008KT 07/M02 A303 RMK A01 T00741019  RH  052%=      5-min Rain = 0
KPD2 191915Z 30011G16KT 07/M02 A303 RMK A01 T00741020  RH  051%=      5-min Rain = 0
KPD2 191916Z 31010G17KT 07/M03 A303 RMK A01 T00691026  RH  051%=      5-min Rain = 0
KPD2 191917Z 35009KT 07/M02 A303 RMK A01 T00661024  RH  052%=      5-min Rain = 0
KPD2 191918Z 36010G15KT 07/M02 A303 RMK A01 T00681022  RH  053%=      5-min Rain = 0
KPD2 191919Z 33008KT 07/M02 A303 RMK A01 T00701021  RH  052%=      5-min Rain = 0
KPD2 191920Z 34010KT 07/M02 A303 RMK A01 T00711021  RH  052%=      5-min Rain = 0
KPD2 191921Z 00009KT 07/M02 A303 RMK A01 T00711022  RH  052%=      5-min Rain = 0
KPD2 191922Z 34005KT 07/M02 A303 RMK A01 T00721021  RH  052%=      5-min Rain = 0
KPD2 191923Z 34008G14KT 07/M02 A303 RMK A01 T00741019  RH  052%=      5-min Rain = 0
KPD2 191924Z 34013KT 07/M02 A303 RMK A01 T00731023  RH  050%=      5-min Rain = 0
KPD2 191925Z 35012KT 07/M02 A303 RMK A01 T00721023  RH  051%=      5-min Rain = 0
KPD2 191926Z 34006KT 07/M02 A3029 RMK A01 T00711023  RH  051%=      5-min Rain = 0
KPD2 191927Z 30006G11KT 07/M02 A3029 RMK A01 T00721020  RH  052%=      5-min Rain = 0
KPD2 191928Z 32009KT 07/M02 A3029 RMK A01 T00741021  RH  051%=      5-min Rain = 0
KPD2 191929Z 30009KT 08/M02 A3029 RMK A01 T00751021  RH  051%=      5-min Rain = 0
KPD2 191930Z 31009KT 08/M02 A3029 RMK A01 T00761021  RH  050%=      5-min Rain = 0
KPD2 191931Z 34012KT 08/M02 A3029 RMK A01 T00751021  RH  050%=      5-min Rain = 0
KPD2 191932Z 32008KT 08/M02 A3029 RMK A01 T00751021  RH  050%=      5-min Rain = 0
KPD2 191933Z 31011KT 07/M02 A3029 RMK A01 T00741023  RH  050%=      5-min Rain = 0
KPD2 191934Z 31009KT 07/M02 A3029 RMK A01 T00731023  RH  050%=      5-min Rain = 0
KPD2 191935Z 30007KT 07/M02 A3029 RMK A01 T00711024  RH  051%=      5-min Rain = 0
KPD2 191936Z 30012KT 07/M02 A3029 RMK A01 T00731021  RH  051%=      5-min Rain = 0
KPD2 191937Z 30012KT 07/M02 A3029 RMK A01 T00731023  RH  050%=      5-min Rain = 0
KPD2 191938Z 32010KT 07/M02 A3029 RMK A01 T00731023  RH  051%=      5-min Rain = 0
KPD2 191939Z 32012G19KT 07/M02 A3029 RMK A01 T00731023  RH  050%=      5-min Rain = 0
KPD2 191940Z 31011G16KT 07/M03 A3029 RMK A01 T00711026  RH  050%=      5-min Rain = 0
KPD2 191941Z 30012KT 07/M03 A3029 RMK A01 T00711025  RH  050%=      5-min Rain = 0
KPD2 191942Z 30009KT 07/M03 A3029 RMK A01 T00701026  RH  050%=      5-min Rain = 0
KPD2 191943Z 28008KT 07/M02 A3029 RMK A01 T00721023  RH  051%=      5-min Rain = 0
KPD2 191944Z 28008KT 07/M02 A3029 RMK A01 T00741024  RH  050%=      5-min Rain = 0
KPD2 191945Z 29011KT 07/M03 A3029 RMK A01 T00721026  RH  050%=      5-min Rain = 0
KPD2 191946Z 29013G18KT 07/M03 A3029 RMK A01 T00701027  RH  050%=      5-min Rain = 0
KPD2 191947Z 30009KT 07/M03 A3029 RMK A01 T00701026  RH  050%=      5-min Rain = 0
KPD2 191948Z 31013KT 07/M03 A3029 RMK A01 T00731025  RH  050%=      5-min Rain = 0
KPD2 191949Z 30011KT 07/M03 A3029 RMK A01 T00741026  RH  049%=      5-min Rain = 0
KPD2 191950Z 29014KT 07/M03 A3028 RMK A01 T00731026  RH  049%=      5-min Rain = 0
KPD2 191951Z 30014G19KT 07/M03 A3028 RMK A01 T00731026  RH  049%=      5-min Rain = 0
KPD2 191952Z 30008KT 07/M03 A3028 RMK A01 T00711028  RH  049%=      5-min Rain = 0
KPD2 191953Z 31008KT 07/M03 A3028 RMK A01 T00711025  RH  050%=      5-min Rain = 0
KPD2 191954Z 30006KT 07/M02 A3028 RMK A01 T00741024  RH  050%=      5-min Rain = 0
KPD2 191955Z 31010G16KT 08/M02 A3028 RMK A01 T00771023  RH  049%=      5-min Rain = 0
KPD2 191956Z 30014KT 08/M03 A3028 RMK A01 T00771026  RH  048%=      5-min Rain = 0
KPD2 191957Z 31013KT 08/M03 A3028 RMK A01 T00751029  RH  048%=      5-min Rain = 0
KPD2 191958Z 33012KT 07/M03 A3028 RMK A01 T00741027  RH  049%=      5-min Rain = 0
KPD2 191959Z 32011KT 08/M02 A3028 RMK A01 T00771024  RH  049%=      5-min Rain = 0
KPD2 192000Z 29007KT 08/M03 A3028 RMK A01 T00781025  RH  048%=      5-min Rain = 0
KPD2 192001Z 31009KT 08/M03 A3028 RMK A01 T00801025  RH  048%=      5-min Rain = 0
KPD2 192002Z 32009KT 08/M02 A3028 RMK A01 T00811024  RH  047%=      5-min Rain = 0
KPD2 192003Z 33009G14KT 08/M02 A3028 RMK A01 T00831024  RH  047%=      5-min Rain = 0
KPD2 192004Z 32009G15KT 08/M02 A3028 RMK A01 T00841024  RH  046%=      5-min Rain = 0
KPD2 192005Z 33010KT 09/M03 A3028 RMK A01 T00851025  RH  046%=      5-min Rain = 0
KPD2 192006Z 31006KT 08/M03 A3028 RMK A01 T00841027  RH  045%=      5-min Rain = 0
KPD2 192007Z 31008KT 08/M03 A3028 RMK A01 T00841026  RH  046%=      5-min Rain = 0
KPD2 192008Z 32009KT 08/M03 A3027 RMK A01 T00841026  RH  046%=      5-min Rain = 0
KPD2 192009Z 30007KT 08/M03 A3027 RMK A01 T00841026  RH  046%=      5-min Rain = 0
KPD2 192010Z 31009KT 09/M03 A3027 RMK A01 T00851026  RH  046%=      5-min Rain = 0
KPD2 192011Z 29009KT 09/M03 A3027 RMK A01 T00851027  RH  045%=      5-min Rain = 0
KPD2 192012Z 29007G12KT 08/M03 A3027 RMK A01 T00841027  RH  045%=      5-min Rain = 0
KPD2 192013Z 31010G15KT 09/M03 A3027 RMK A01 T00851026  RH  045%=      5-min Rain = 0
KPD2 192014Z 30013KT 09/M03 A3027 RMK A01 T00861028  RH  045%=      5-min Rain = 0
KPD2 192015Z 31013KT 08/M03 A3027 RMK A01 T00841029  RH  045%=      5-min Rain = 0
KPD2 192016Z 31013KT 08/M03 A3027 RMK A01 T00831028  RH  045%=      5-min Rain = 0
KPD2 192017Z 32010KT 08/M03 A3027 RMK A01 T00811030  RH  045%=      5-min Rain = 0
KPD2 192018Z 33010KT 08/M03 A3027 RMK A01 T00811028  RH  046%=      5-min Rain = 0
KPD2 192019Z 29011KT 08/M03 A3027 RMK A01 T00841026  RH  046%=      5-min Rain = 0
KPD2 192020Z 30012KT 08/M03 A3027 RMK A01 T00821030  RH  045%=      5-min Rain = 0
KPD2 192021Z 30012G17KT 08/M03 A3027 RMK A01 T00781031  RH  046%=      5-min Rain = 0
KPD2 192022Z 30011KT 08/M03 A3027 RMK A01 T00791030  RH  046%=      5-min Rain = 0
KPD2 192023Z 33008KT 08/M03 A3027 RMK A01 T00801029  RH  046%=      5-min Rain = 0
KPD2 192024Z 34007KT 08/M03 A3027 RMK A01 T00831027  RH  046%=      5-min Rain = 0
KPD2 192025Z 31010KT 09/M03 A3027 RMK A01 T00871026  RH  045%=      5-min Rain = 0
KPD2 192026Z 32008KT 09/M03 A3027 RMK A01 T00861029  RH  044%=      5-min Rain = 0
KPD2 192027Z 30008KT 08/M03 A3027 RMK A01 T00841029  RH  045%=      5-min Rain = 0
KPD2 192028Z 31010KT 09/M03 A3027 RMK A01 T00851029  RH  044%=      5-min Rain = 0
KPD2 192029Z 32012KT 09/M03 A3027 RMK A01 T00851028  RH  045%=      5-min Rain = 0
KPD2 192030Z 30009KT 08/M03 A3027 RMK A01 T00841029  RH  045%=      5-min Rain = 0
KPD2 192031Z 32007KT 09/M03 A3027 RMK A01 T00851027  RH  045%=      5-min Rain = 0
KPD2 192032Z 30007KT 09/M03 A3027 RMK A01 T00871027  RH  044%=      5-min Rain = 0
KPD2 192033Z 29009KT 09/M03 A3027 RMK A01 T00881028  RH  044%=      5-min Rain = 0
KPD2 192034Z 29011KT 09/M03 A3026 RMK A01 T00871029  RH  044%=      5-min Rain = 0
KPD2 192035Z 29012G18KT 09/M03 A3026 RMK A01 T00871029  RH  044%=      5-min Rain = 0
KPD2 192036Z 30011G16KT 09/M03 A3026 RMK A01 T00851031  RH  044%=      5-min Rain = 0
KPD2 192037Z 29009G14KT 08/M03 A3026 RMK A01 T00841031  RH  044%=      5-min Rain = 0
KPD2 192038Z 30009KT 09/M03 A3026 RMK A01 T00851029  RH  044%=      5-min Rain = 0
KPD2 192039Z 29012KT 09/M03 A3026 RMK A01 T00881028  RH  044%=      5-min Rain = 0
KPD2 192040Z 31010KT 09/M03 A3026 RMK A01 T00851031  RH  044%=      5-min Rain = 0
KPD2 192041Z 30008KT 08/M03 A3026 RMK A01 T00841031  RH  044%=      5-min Rain = 0
KPD2 192042Z 29008KT 09/M03 A3026 RMK A01 T00861028  RH  044%=      5-min Rain = 0
KPD2 192043Z 31010G15KT 09/M03 A3026 RMK A01 T00881029  RH  044%=      5-min Rain = 0
KPD2 192044Z 30012G17KT 09/M03 A3027 RMK A01 T00891029  RH  043%=      5-min Rain = 0
KPD2 192045Z 31010KT 09/M03 A3027 RMK A01 T00881031  RH  043%=      5-min Rain = 0
KPD2 192046Z 32009KT 09/M03 A3027 RMK A01 T00871030  RH  043%=      5-min Rain = 0
KPD2 192047Z 30011KT 09/M03 A3026 RMK A01 T00861031  RH  044%=      5-min Rain = 0
KPD2 192048Z 30008G13KT 09/M03 A3027 RMK A01 T00861031  RH  044%=      5-min Rain = 0
KPD2 192049Z 32009KT 09/M03 A3027 RMK A01 T00871030  RH  044%=      5-min Rain = 0
KPD2 192050Z 32011KT 09/M03 A3027 RMK A01 T00901028  RH  043%=      5-min Rain = 0
KPD2 192051Z 32008KT 09/M03 A3027 RMK A01 T00891031  RH  043%=      5-min Rain = 0
KPD2 192052Z 33011KT 09/M03 A3027 RMK A01 T00881030  RH  043%=      5-min Rain = 0
KPD2 192053Z 31010KT 09/M03 A3027 RMK A01 T00911028  RH  043%=      5-min Rain = 0
KPD2 192054Z 31014KT 09/M03 A3027 RMK A01 T00911030  RH  043%=      5-min Rain = 0
KPD2 192055Z 31009KT 09/M03 A3027 RMK A01 T00881032  RH  043%=      5-min Rain = 0
KPD2 192056Z 31008KT 09/M03 A3026 RMK A01 T00871032  RH  043%=      5-min Rain = 0
KPD2 192057Z 30008G13KT 09/M03 A3026 RMK A01 T00871032  RH  043%=      5-min Rain = 0
KPD2 192058Z 33009KT 09/M03 A3026 RMK A01 T00891030  RH  043%=      5-min Rain = 0
KPD2 192059Z 33009KT 09/M03 A3026 RMK A01 T00911029  RH  043%=      5-min Rain = 0
KPD2 192100Z 30010KT 09/M03 A3026 RMK A01 T00931029  RH  042%=      5-min Rain = 0
KPD2 192101Z 31009KT 09/M03 A3026 RMK A01 T00941029  RH  042%=      5-min Rain = 0
KPD2 192102Z 32008KT 09/M03 A3026 RMK A01 T00941031  RH  041%=      5-min Rain = 0
KPD2 192103Z 30010G17KT 09/M03 A3026 RMK A01 T00931031  RH  041%=      5-min Rain = 0
KPD2 192104Z 30011KT 09/M03 A3026 RMK A01 T00931032  RH  041%=      5-min Rain = 0
KPD2 192105Z 31012KT 09/M03 A3026 RMK A01 T00921032  RH  042%=      5-min Rain = 0
KPD2 192106Z 31012G17KT 09/M03 A3026 RMK A01 T00911033  RH  041%=      5-min Rain = 0
KPD2 192107Z 32013KT 09/M03 A3026 RMK A01 T00921031  RH  042%=      5-min Rain = 0
KPD2 192108Z 32012KT 09/M03 A3026 RMK A01 T00931031  RH  041%=      5-min Rain = 0
KPD2 192109Z 32007G13KT 09/M03 A3026 RMK A01 T00931031  RH  041%=      5-min Rain = 0
KPD2 192110Z 30007KT 09/M03 A3026 RMK A01 T00921032  RH  042%=      5-min Rain = 0
KPD2 192111Z 30009KT 09/M03 A3026 RMK A01 T00911032  RH  042%=      5-min Rain = 0
KPD2 192112Z 31006KT 09/M03 A3026 RMK A01 T00911031  RH  042%=      5-min Rain = 0
KPD2 192113Z 31006KT 09/M03 A3026 RMK A01 T00931029  RH  042%=      5-min Rain = 0
KPD2 192114Z 31010G15KT 10/M03 A3026 RMK A01 T00951030  RH  041%=      5-min Rain = 0
KPD2 192115Z 31012KT 10/M03 A3026 RMK A01 T00951032  RH  041%=      5-min Rain = 0
KPD2 192116Z 31010G15KT 09/M03 A3026 RMK A01 T00941033  RH  040%=      5-min Rain = 0
KPD2 192117Z 30010G15KT 09/M03 A3026 RMK A01 T00941034  RH  041%=      5-min Rain = 0
KPD2 192118Z 31012KT 09/M03 A3026 RMK A01 T00941033  RH  041%=      5-min Rain = 0
KPD2 192119Z 31011KT 09/M03 A3026 RMK A01 T00941034  RH  040%=      5-min Rain = 0
KPD2 192120Z 31010KT 09/M03 A3026 RMK A01 T00941033  RH  041%=      5-min Rain = 0
KPD2 192121Z 33008KT 09/M03 A3026 RMK A01 T00941034  RH  040%=      5-min Rain = 0
KPD2 192122Z 30007KT 09/M03 A3026 RMK A01 T00931034  RH  041%=      5-min Rain = 0
KPD2 192123Z 31011KT 09/M03 A3026 RMK A01 T00941034  RH  040%=      5-min Rain = 0
KPD2 192124Z 31011KT 09/M03 A3026 RMK A01 T00941034  RH  040%=      5-min Rain = 0
KPD2 192125Z 32013KT 09/M04 A3026 RMK A01 T00941035  RH  040%=      5-min Rain = 0
KPD2 192126Z 33011KT 10/M04 A3026 RMK A01 T00951035  RH  040%=      5-min Rain = 0
KPD2 192127Z 33007KT 09/M04 A3026 RMK A01 T00931035  RH  040%=      5-min Rain = 0
KPD2 192128Z 31007KT 09/M03 A3026 RMK A01 T00931034  RH  041%=      5-min Rain = 0
KPD2 192129Z 31011KT 10/M03 A3026 RMK A01 T00961033  RH  040%=      5-min Rain = 0
KPD2 192130Z 31008G13KT 10/M03 A3026 RMK A01 T00961034  RH  040%=      5-min Rain = 0
KPD2 192131Z 32010KT 10/M03 A3026 RMK A01 T00951034  RH  040%=      5-min Rain = 0
KPD2 192132Z 32009KT 10/M03 A3026 RMK A01 T00961034  RH  040%=      5-min Rain = 0
KPD2 192133Z 32007KT 10/M04 A3026 RMK A01 T00961035  RH  040%=      5-min Rain = 0
KPD2 192134Z 30008KT 10/M03 A3026 RMK A01 T00961034  RH  040%=      5-min Rain = 0
KPD2 192135Z 31010KT 10/M03 A3026 RMK A01 T00981033  RH  040%=      5-min Rain = 0
KPD2 192136Z 31007KT 10/M03 A3026 RMK A01 T00981034  RH  039%=      5-min Rain = 0
KPD2 192137Z 31011KT 10/M03 A3026 RMK A01 T01001033  RH  039%=      5-min Rain = 0
KPD2 192138Z 31011KT 10/M04 A3026 RMK A01 T01011035  RH  038%=      5-min Rain = 0
KPD2 192139Z 30009KT 10/M04 A3026 RMK A01 T00991035  RH  039%=      5-min Rain = 0
KPD2 192140Z 29011KT 10/M04 A3026 RMK A01 T00991035  RH  039%=      5-min Rain = 0
KPD2 192141Z 30009KT 10/M04 A3026 RMK A01 T00981035  RH  039%=      5-min Rain = 0
KPD2 192142Z 32008G13KT 10/M04 A3026 RMK A01 T00971036  RH  039%=      5-min Rain = 0
KPD2 192143Z 32004KT 10/M04 A3026 RMK A01 T00961035  RH  039%=      5-min Rain = 0
KPD2 192144Z 35007G12KT 10/M03 A3026 RMK A01 T00991032  RH  040%=      5-min Rain = 0
KPD2 192145Z 33007KT 10/M03 A3026 RMK A01 T01031031  RH  039%=      5-min Rain = 0
KPD2 192146Z 35005KT 10/M03 A3026 RMK A01 T01041032  RH  038%=      5-min Rain = 0
KPD2 192147Z 34009KT 11/M03 A3026 RMK A01 T01051032  RH  038%=      5-min Rain = 0
KPD2 192148Z 34008KT 10/M03 A3026 RMK A01 T01041033  RH  038%=      5-min Rain = 0
KPD2 192149Z 35009KT 11/M03 A3026 RMK A01 T01051032  RH  038%=      5-min Rain = 0
KPD2 192150Z 34009KT 11/M03 A3026 RMK A01 T01061032  RH  038%=      5-min Rain = 0
KPD2 192151Z 34007KT 11/M03 A3026 RMK A01 T01061033  RH  037%=      5-min Rain = 0
KPD2 192152Z 35009KT 11/M03 A3026 RMK A01 T01051033  RH  038%=      5-min Rain = 0
KPD2 192153Z 01010KT 11/M03 A3026 RMK A01 T01061032  RH  038%=      5-min Rain = 0
KPD2 192154Z 35009KT 11/M03 A3026 RMK A01 T01051032  RH  038%=      5-min Rain = 0
KPD2 192155Z 32005KT 10/M03 A3026 RMK A01 T01031034  RH  038%=      5-min Rain = 0
KPD2 192156Z 32004KT 10/M04 A3026 RMK A01 T01011035  RH  038%=      5-min Rain = 0
KPD2 192157Z 32004KT 10/M04 A3026 RMK A01 T01001035  RH  038%=      5-min Rain = 0
KPD2 192158Z 32006KT 10/M03 A3026 RMK A01 T01021034  RH  038%=      5-min Rain = 0
KPD2 192159Z 32011KT 11/M03 A3026 RMK A01 T01051032  RH  038%=      5-min Rain = 0
KPD2 192200Z 32010KT 10/M04 A3026 RMK A01 T01041036  RH  037%=      5-min Rain = 0
KPD2 192201Z 33007KT 10/M04 A3026 RMK A01 T01011039  RH  037%=      5-min Rain = 0
KPD2 192202Z 32006KT 10/M04 A3026 RMK A01 T00991038  RH  038%=      5-min Rain = 0
KPD2 192203Z 34007KT 10/M04 A3027 RMK A01 T00991036  RH  038%=      5-min Rain = 0
KPD2 192204Z 35008KT 10/M04 A3027 RMK A01 T01001037  RH  038%=      5-min Rain = 0
KPD2 192205Z 32008KT 10/M04 A3027 RMK A01 T00991038  RH  038%=      5-min Rain = 0
KPD2 192206Z 32008KT 10/M04 A3027 RMK A01 T01001036  RH  038%=      5-min Rain = 0
KPD2 192207Z 33008KT 10/M04 A3027 RMK A01 T01001036  RH  038%=      5-min Rain = 0
KPD2 192208Z 33012KT 10/M04 A3027 RMK A01 T01011035  RH  038%=      5-min Rain = 0
KPD2 192209Z 33008KT 10/M04 A3026 RMK A01 T01011037  RH  038%=      5-min Rain = 0
KPD2 192210Z 35008KT 10/M04 A3026 RMK A01 T01001038  RH  038%=      5-min Rain = 0
KPD2 192211Z 36009KT 10/M04 A3026 RMK A01 T01001037  RH  038%=      5-min Rain = 0
KPD2 192212Z 35008KT 10/M04 A3026 RMK A01 T01011035  RH  038%=      5-min Rain = 0
KPD2 192213Z 35008KT 10/M04 A3026 RMK A01 T01011035  RH  038%=      5-min Rain = 0
KPD2 192214Z 35008KT 10/M03 A3026 RMK A01 T01011034  RH  038%=      5-min Rain = 0
KPD2 192215Z 01008KT 10/M03 A3026 RMK A01 T01021034  RH  038%=      5-min Rain = 0
KPD2 192216Z 35006KT 10/M03 A3026 RMK A01 T01031033  RH  038%=      5-min Rain = 0
KPD2 192217Z 35007KT 10/M03 A3026 RMK A01 T01041033  RH  038%=      5-min Rain = 0
KPD2 192218Z 33007KT 10/M03 A3026 RMK A01 T01041034  RH  038%=      5-min Rain = 0
KPD2 192219Z 33007KT 10/M04 A3026 RMK A01 T01031035  RH  038%=      5-min Rain = 0
KPD2 192220Z 34005KT 10/M03 A3026 RMK A01 T01041034  RH  038%=      5-min Rain = 0
KPD2 192221Z 34009KT 11/M03 A3027 RMK A01 T01051034  RH  037%=      5-min Rain = 0
KPD2 192222Z 33008KT 10/M04 A3026 RMK A01 T01041038  RH  037%=      5-min Rain = 0
KPD2 192223Z 33008KT 10/M04 A3026 RMK A01 T01011040  RH  037%=      5-min Rain = 0
KPD2 192224Z 31009KT 10/M04 A3026 RMK A01 T01001041  RH  037%=      5-min Rain = 0
KPD2 192225Z 33007KT 10/M04 A3026 RMK A01 T00991042  RH  037%=      5-min Rain = 0
KPD2 192226Z 34008KT 10/M04 A3026 RMK A01 T00991040  RH  037%=      5-min Rain = 0
KPD2 192227Z 33008KT 10/M04 A3026 RMK A01 T00991039  RH  038%=      5-min Rain = 0
KPD2 192228Z 31007KT 10/M04 A3026 RMK A01 T00991039  RH  038%=      5-min Rain = 0
KPD2 192229Z 31009KT 10/M04 A3026 RMK A01 T01001038  RH  038%=      5-min Rain = 0
KPD2 192230Z 31009KT 10/M04 A3026 RMK A01 T00991039  RH  038%=      5-min Rain = 0
KPD2 192231Z 33006KT 10/M04 A3026 RMK A01 T00981040  RH  038%=      5-min Rain = 0
KPD2 192232Z 32008KT 10/M04 A3026 RMK A01 T00971039  RH  038%=      5-min Rain = 0
KPD2 192233Z 30008KT 10/M04 A3026 RMK A01 T00971039  RH  038%=      5-min Rain = 0
KPD2 192234Z 32005KT 10/M04 A3026 RMK A01 T00971039  RH  038%=      5-min Rain = 0
KPD2 192235Z 31005KT 10/M04 A3026 RMK A01 T00981037  RH  038%=      5-min Rain = 0
KPD2 192236Z 33005KT 10/M04 A3026 RMK A01 T01001038  RH  038%=      5-min Rain = 0
KPD2 192237Z 31008G13KT 10/M04 A3026 RMK A01 T01011038  RH  037%=      5-min Rain = 0
KPD2 192238Z 32009KT 10/M04 A3026 RMK A01 T01011040  RH  037%=      5-min Rain = 0
KPD2 192239Z 32009KT 10/M04 A3026 RMK A01 T01011042  RH  037%=      5-min Rain = 0
KPD2 192240Z 32008KT 10/M04 A3026 RMK A01 T00991043  RH  037%=      5-min Rain = 0
KPD2 192241Z 32005KT 10/M04 A3026 RMK A01 T00981043  RH  037%=      5-min Rain = 0
KPD2 192242Z 31008KT 10/M04 A3026 RMK A01 T00981042  RH  037%=      5-min Rain = 0
KPD2 192243Z 30009KT 10/M04 A3026 RMK A01 T00981042  RH  037%=      5-min Rain = 0
KPD2 192244Z 29008KT 10/M04 A3026 RMK A01 T00981042  RH  037%=      5-min Rain = 0
KPD2 192245Z 29007KT 10/M04 A3026 RMK A01 T00961042  RH  037%=      5-min Rain = 0
KPD2 192246Z 29008KT 10/M04 A3026 RMK A01 T00951042  RH  038%=      5-min Rain = 0
KPD2 192247Z 31008KT 10/M04 A3026 RMK A01 T00951041  RH  038%=      5-min Rain = 0
KPD2 192248Z 32007KT 10/M04 A3026 RMK A01 T00951041  RH  038%=      5-min Rain = 0
KPD2 192249Z 34005KT 10/M04 A3026 RMK A01 T00951041  RH  038%=      5-min Rain = 0
KPD2 192250Z 31005KT 10/M04 A3026 RMK A01 T00951040  RH  038%=      5-min Rain = 0
KPD2 192251Z 32005KT 10/M04 A3026 RMK A01 T00971039  RH  038%=      5-min Rain = 0
KPD2 192252Z 31008KT 10/M04 A3026 RMK A01 T00971039  RH  038%=      5-min Rain = 0
KPD2 192253Z 32009KT 10/M04 A3026 RMK A01 T00971040  RH  038%=      5-min Rain = 0
KPD2 192254Z 34005KT 10/M04 A3026 RMK A01 T00971039  RH  038%=      5-min Rain = 0
KPD2 192255Z 28005KT 10/M04 A3026 RMK A01 T00971039  RH  038%=      5-min Rain = 0
KPD2 192256Z 28007KT 10/M04 A3026 RMK A01 T00971040  RH  038%=      5-min Rain = 0
KPD2 192257Z 31004KT 10/M04 A3027 RMK A01 T00971040  RH  038%=      5-min Rain = 0
KPD2 192258Z 31006KT 10/M04 A3027 RMK A01 T00961039  RH  038%=      5-min Rain = 0
KPD2 192259Z 32006KT 10/M04 A3027 RMK A01 T00971039  RH  038%=      5-min Rain = 0
KPD2 192300Z 29006KT 10/M04 A3027 RMK A01 T00981039  RH  038%=      5-min Rain = 0
KPD2 192301Z 30005KT 10/M04 A3027 RMK A01 T00971041  RH  038%=      5-min Rain = 0
KPD2 192302Z 31004KT 10/M04 A3027 RMK A01 T00951041  RH  038%=      5-min Rain = 0
KPD2 192303Z 33006KT 10/M04 A3027 RMK A01 T00961040  RH  038%=      5-min Rain = 0
KPD2 192304Z 01006KT 10/M04 A3027 RMK A01 T00961040  RH  038%=      5-min Rain = 0
KPD2 192305Z 36005KT 10/M04 A3027 RMK A01 T00961040  RH  038%=      5-min Rain = 0
KPD2 192306Z 30002KT 09/M04 A3027 RMK A01 T00941041  RH  038%=      5-min Rain = 0
KPD2 192307Z 31005KT 10/M04 A3027 RMK A01 T00951040  RH  038%=      5-min Rain = 0
KPD2 192308Z 36005KT 10/M04 A3027 RMK A01 T00951040  RH  038%=      5-min Rain = 0
KPD2 192309Z 01007KT 10/M04 A3027 RMK A01 T00961041  RH  038%=      5-min Rain = 0
KPD2 192310Z 01008KT 10/M04 A3027 RMK A01 T00961042  RH  037%=      5-min Rain = 0
KPD2 192311Z 00006KT 10/M04 A3027 RMK A01 T00951044  RH  037%=      5-min Rain = 0
KPD2 192312Z 34006KT 10/M04 A3027 RMK A01 T00961044  RH  037%=      5-min Rain = 0
KPD2 192313Z 34005KT 10/M04 A3027 RMK A01 T00951044  RH  037%=      5-min Rain = 0
KPD2 192314Z 35007KT 10/M05 A3027 RMK A01 T00951045  RH  037%=      5-min Rain = 0
KPD2 192315Z 34008KT 09/M05 A3027 RMK A01 T00941045  RH  037%=      5-min Rain = 0
KPD2 192316Z 35008KT 09/M05 A3027 RMK A01 T00931045  RH  037%=      5-min Rain = 0
KPD2 192317Z 35009KT 09/M05 A3027 RMK A01 T00931045  RH  037%=      5-min Rain = 0
KPD2 192318Z 36007KT 09/M05 A3027 RMK A01 T00921046  RH  038%=      5-min Rain = 0
KPD2 192319Z 00010KT 09/M05 A3027 RMK A01 T00921045  RH  038%=      5-min Rain = 0
KPD2 192320Z 35009KT 09/M05 A3027 RMK A01 T00921045  RH  038%=      5-min Rain = 0
KPD2 192321Z 35007KT 09/M05 A3027 RMK A01 T00911045  RH  038%=      5-min Rain = 0
KPD2 192322Z 33007KT 09/M05 A3027 RMK A01 T00911045  RH  038%=      5-min Rain = 0
KPD2 192323Z 34006KT 09/M05 A3027 RMK A01 T00901045  RH  038%=      5-min Rain = 0
KPD2 192324Z 35007KT 09/M05 A3027 RMK A01 T00891045  RH  038%=      5-min Rain = 0
KPD2 192325Z 33005KT 09/M04 A3027 RMK A01 T00891044  RH  039%=      5-min Rain = 0
KPD2 192326Z 35005KT 09/M04 A3027 RMK A01 T00881044  RH  039%=      5-min Rain = 0
KPD2 192327Z 34006KT 09/M04 A3027 RMK A01 T00881044  RH  039%=      5-min Rain = 0
KPD2 192328Z 34008KT 09/M04 A3027 RMK A01 T00871044  RH  039%=      5-min Rain = 0
KPD2 192329Z 34007KT 09/M04 A3027 RMK A01 T00861044  RH  040%=      5-min Rain = 0
KPD2 192330Z 35006KT 09/M04 A3027 RMK A01 T00851043  RH  040%=      5-min Rain = 0
KPD2 192331Z 35005KT 08/M04 A3027 RMK A01 T00841043  RH  040%=      5-min Rain = 0
KPD2 192332Z 34004KT 08/M04 A3027 RMK A01 T00831042  RH  041%=      5-min Rain = 0
KPD2 192333Z 35006KT 08/M04 A3027 RMK A01 T00821042  RH  041%=      5-min Rain = 0
KPD2 192334Z 34006KT 08/M04 A3027 RMK A01 T00811042  RH  041%=      5-min Rain = 0
KPD2 192335Z 35005KT 08/M04 A3027 RMK A01 T00811041  RH  042%=      5-min Rain = 0
KPD2 192336Z 36004KT 08/M04 A3027 RMK A01 T00801041  RH  042%=      5-min Rain = 0
KPD2 192337Z 36004KT 08/M04 A3027 RMK A01 T00801041  RH  042%=      5-min Rain = 0
KPD2 192338Z 36004KT 08/M04 A3027 RMK A01 T00791042  RH  042%=      5-min Rain = 0
KPD2 192339Z 35005KT 08/M04 A3027 RMK A01 T00791042  RH  042%=      5-min Rain = 0
KPD2 192340Z 35004KT 08/M04 A3027 RMK A01 T00781042  RH  042%=      5-min Rain = 0
KPD2 192341Z 36006KT 08/M04 A3027 RMK A01 T00781042  RH  042%=      5-min Rain = 0
KPD2 192342Z 35005KT 08/M04 A3027 RMK A01 T00781043  RH  042%=      5-min Rain = 0
KPD2 192343Z 35004KT 08/M04 A3027 RMK A01 T00771044  RH  042%=      5-min Rain = 0
KPD2 192344Z 00005KT 08/M04 A3027 RMK A01 T00771044  RH  042%=      5-min Rain = 0
KPD2 192345Z 01003KT 08/M04 A3027 RMK A01 T00771044  RH  042%=      5-min Rain = 0
KPD2 192346Z 01004KT 08/M04 A3027 RMK A01 T00771043  RH  042%=      5-min Rain = 0
KPD2 192347Z 00005KT 08/M04 A3027 RMK A01 T00781043  RH  042%=      5-min Rain = 0
KPD2 192348Z 02006KT 08/M04 A3027 RMK A01 T00771043  RH  042%=      5-min Rain = 0
KPD2 192349Z 01004KT 08/M04 A3027 RMK A01 T00761043  RH  042%=      5-min Rain = 0
KPD2 192350Z 02003KT 08/M04 A3027 RMK A01 T00761043  RH  043%=      5-min Rain = 0
KPD2 192351Z 01006KT 08/M04 A3027 RMK A01 T00761043  RH  043%=      5-min Rain = 0
KPD2 192352Z 01006KT 08/M04 A3027 RMK A01 T00751044  RH  043%=      5-min Rain = 0
KPD2 192353Z 01005KT 08/M04 A3027 RMK A01 T00751043  RH  043%=      5-min Rain = 0
KPD2 192354Z 01005KT 08/M04 A3027 RMK A01 T00751043  RH  043%=      5-min Rain = 0
KPD2 192355Z 01005KT 08/M04 A3027 RMK A01 T00751043  RH  043%=      5-min Rain = 0
KPD2 192356Z 01004KT 07/M04 A3027 RMK A01 T00741044  RH  043%=      5-min Rain = 0
KPD2 192357Z 36004KT 07/M04 A3027 RMK A01 T00741044  RH  043%=      5-min Rain = 0
KPD2 192358Z 01003KT 07/M04 A3027 RMK A01 T00741044  RH  043%=      5-min Rain = 0
KPD2 192359Z 01002KT 07/M04 A3027 RMK A01 T00731044  RH  043%=      5-min Rain = 0
KPD2 200000Z 35003KT 07/M05 A3028 RMK A01 T00731045  RH  043%=      5-min Rain = 0
KPD2 200001Z 35004KT 07/M05 A3028 RMK A01 T00721045  RH  043%=      5-min Rain = 0
KPD2 200002Z 00003KT 07/M04 A3027 RMK A01 T00721044  RH  043%=      5-min Rain = 0
KPD2 200003Z 35002KT 07/M04 A3027 RMK A01 T00711044  RH  044%=      5-min Rain = 0
KPD2 200004Z 01003KT 07/M04 A3027 RMK A01 T00711044  RH  044%=      5-min Rain = 0
KPD2 200005Z 01003KT 07/M04 A3027 RMK A01 T00701044  RH  044%=      5-min Rain = 0
KPD2 200006Z 03003KT 07/M04 A3028 RMK A01 T00691044  RH  045%=      5-min Rain = 0
KPD2 200007Z 03003KT 07/M04 A3028 RMK A01 T00681043  RH  045%=      5-min Rain = 0
KPD2 200008Z 03003KT 07/M04 A3028 RMK A01 T00681043  RH  045%=      5-min Rain = 0
KPD2 200009Z 03003KT 07/M04 A3028 RMK A01 T00681042  RH  045%=      5-min Rain = 0
KPD2 200010Z 03003KT 07/M04 A3028 RMK A01 T00681042  RH  045%=      5-min Rain = 0
KPD2 200011Z 04002KT 07/M04 A3028 RMK A01 T00681042  RH  045%=      5-min Rain = 0
KPD2 200012Z 05001KT 07/M04 A3028 RMK A01 T00691042  RH  045%=      5-min Rain = 0
KPD2 200013Z 03002KT 07/M04 A3028 RMK A01 T00681043  RH  045%=      5-min Rain = 0
KPD2 200014Z 04004KT 07/M04 A3027 RMK A01 T00681043  RH  045%=      5-min Rain = 0
KPD2 200015Z 04003KT 07/M04 A3027 RMK A01 T00681042  RH  045%=      5-min Rain = 0
KPD2 200016Z 04003KT 07/M04 A3027 RMK A01 T00681041  RH  045%=      5-min Rain = 0
KPD2 200017Z 04002KT 07/M04 A3027 RMK A01 T00691042  RH  045%=      5-min Rain = 0
KPD2 200018Z 03003KT 07/M04 A3027 RMK A01 T00701041  RH  045%=      5-min Rain = 0
KPD2 200019Z 04004KT 07/M04 A3027 RMK A01 T00701042  RH  045%=      5-min Rain = 0
KPD2 200020Z 02003KT 07/M04 A3027 RMK A01 T00711041  RH  045%=      5-min Rain = 0
KPD2 200021Z 03003KT 07/M04 A3027 RMK A01 T00711041  RH  045%=      5-min Rain = 0
KPD2 200022Z 01003KT 07/M04 A3027 RMK A01 T00711041  RH  045%=      5-min Rain = 0
KPD2 200023Z 06003KT 07/M04 A3027 RMK A01 T00711041  RH  045%=      5-min Rain = 0
KPD2 200024Z 00002KT 07/M04 A3027 RMK A01 T00701041  RH  045%=      5-min Rain = 0
KPD2 200025Z 00002KT 07/M04 A3027 RMK A01 T00701041  RH  045%=      5-min Rain = 0
KPD2 200026Z 33003KT 07/M04 A3027 RMK A01 T00691041  RH  045%=      5-min Rain = 0
KPD2 200027Z 33001KT 07/M04 A3027 RMK A01 T00691042  RH  045%=      5-min Rain = 0
KPD2 200028Z 21002KT 07/M04 A3027 RMK A01 T00661043  RH  045%=      5-min Rain = 0
KPD2 200029Z 21002KT 06/M05 A3027 RMK A01 T00611045  RH  046%=      5-min Rain = 0
KPD2 200030Z 22003KT 06/M05 A3027 RMK A01 T00581045  RH  048%=      5-min Rain = 0
KPD2 200031Z 23003KT 06/M05 A3027 RMK A01 T00551045  RH  049%=      5-min Rain = 0
KPD2 200032Z 22003KT 05/M04 A3027 RMK A01 T00531044  RH  049%=      5-min Rain = 0
KPD2 200033Z 21002KT 05/M04 A3027 RMK A01 T00521044  RH  050%=      5-min Rain = 0
KPD2 200034Z 21002KT 05/M05 A3027 RMK A01 T00511045  RH  050%=      5-min Rain = 0
KPD2 200035Z 21001KT 05/M05 A3028 RMK A01 T00501045  RH  050%=      5-min Rain = 0
KPD2 200036Z 18001KT 05/M05 A3028 RMK A01 T00491045  RH  051%=      5-min Rain = 0
KPD2 200037Z 12001KT 05/M05 A3028 RMK A01 T00481045  RH  051%=      5-min Rain = 0
KPD2 200038Z 12001KT 05/M04 A3028 RMK A01 T00471044  RH  052%=      5-min Rain = 0
KPD2 200039Z 00000KT 05/M04 A3028 RMK A01 T00471043  RH  052%=      5-min Rain = 0
KPD2 200040Z 00000KT 05/M04 A3028 RMK A01 T00471043  RH  052%=      5-min Rain = 0
KPD2 200041Z 00000KT 05/M04 A3028 RMK A01 T00471043  RH  052%=      5-min Rain = 0
KPD2 200042Z 00000KT 05/M04 A3027 RMK A01 T00471043  RH  052%=      5-min Rain = 0
KPD2 200043Z 00000KT 05/M04 A3027 RMK A01 T00471044  RH  052%=      5-min Rain = 0
KPD2 200044Z 12001KT 05/M05 A3027 RMK A01 T00451045  RH  052%=      5-min Rain = 0
KPD2 200045Z 12000KT 05/M04 A3027 RMK A01 T00451044  RH  053%=      5-min Rain = 0
KPD2 200046Z 12001KT 04/M04 A3027 RMK A01 T00441043  RH  053%=      5-min Rain = 0
KPD2 200047Z 12000KT 05/M04 A3027 RMK A01 T00451043  RH  053%=      5-min Rain = 0
KPD2 200048Z 15001KT 05/M04 A3027 RMK A01 T00451043  RH  053%=      5-min Rain = 0
KPD2 200049Z 15001KT 05/M04 A3027 RMK A01 T00451043  RH  053%=      5-min Rain = 0
KPD2 200050Z 15001KT 05/M04 A3027 RMK A01 T00451043  RH  053%=      5-min Rain = 0
KPD2 200051Z 16000KT 04/M04 A3027 RMK A01 T00441044  RH  053%=      5-min Rain = 0
KPD2 200052Z 19000KT 04/M05 A3027 RMK A01 T00431045  RH  053%=      5-min Rain = 0
KPD2 200053Z 20001KT 04/M05 A3027 RMK A01 T00421046  RH  053%=      5-min Rain = 0
KPD2 200054Z 20002KT 04/M04 A3027 RMK A01 T00411044  RH  054%=      5-min Rain = 0
KPD2 200055Z 20003KT 04/M04 A3027 RMK A01 T00411043  RH  054%=      5-min Rain = 0
KPD2 200056Z 21003KT 04/M04 A3027 RMK A01 T00401043  RH  054%=      5-min Rain = 0
KPD2 200057Z 17002KT 04/M04 A3027 RMK A01 T00401044  RH  055%=      5-min Rain = 0
KPD2 200058Z 15002KT 04/M04 A3027 RMK A01 T00391044  RH  055%=      5-min Rain = 0
KPD2 200059Z 14002KT 04/M05 A3027 RMK A01 T00371045  RH  055%=      5-min Rain = 0
KPD2 200100Z 15002KT 04/M05 A3026 RMK A01 T00361045  RH  055%=      5-min Rain = 0
KPD2 200101Z 16002KT 04/M05 A3026 RMK A01 T00351046  RH  055%=      5-min Rain = 0
KPD2 200102Z 14002KT 03/M05 A3026 RMK A01 T00341045  RH  056%=      5-min Rain = 0
KPD2 200103Z 15002KT 03/M05 A3026 RMK A01 T00341045  RH  056%=      5-min Rain = 0
KPD2 200104Z 16002KT 04/M04 A3026 RMK A01 T00351044  RH  056%=      5-min Rain = 0
KPD2 200105Z 15001KT 04/M05 A3026 RMK A01 T00351045  RH  056%=      5-min Rain = 0
KPD2 200106Z 14001KT 03/M05 A3026 RMK A01 T00341045  RH  056%=      5-min Rain = 0
KPD2 200107Z 14001KT 03/M05 A3026 RMK A01 T00341045  RH  056%=      5-min Rain = 0
KPD2 200108Z 14000KT 03/M04 A3026 RMK A01 T00341044  RH  057%=      5-min Rain = 0
KPD2 200109Z 00000KT 04/M04 A3026 RMK A01 T00351043  RH  057%=      5-min Rain = 0
KPD2 200110Z 17000KT 04/M04 A3026 RMK A01 T00371042  RH  056%=      5-min Rain = 0
KPD2 200111Z 17000KT 04/M04 A3026 RMK A01 T00391042  RH  055%=      5-min Rain = 0
KPD2 200112Z 16000KT 04/M04 A3026 RMK A01 T00391044  RH  055%=      5-min Rain = 0
KPD2 200113Z 14001KT 04/M04 A3026 RMK A01 T00401043  RH  055%=      5-min Rain = 0
KPD2 200114Z 14001KT 04/M04 A3026 RMK A01 T00401043  RH  055%=      5-min Rain = 0
KPD2 200115Z 14001KT 04/M04 A3025 RMK A01 T00401043  RH  055%=      5-min Rain = 0
KPD2 200116Z 14000KT 04/M04 A3025 RMK A01 T00411043  RH  054%=      5-min Rain = 0
KPD2 200117Z 35000KT 04/M04 A3025 RMK A01 T00411043  RH  054%=      5-min Rain = 0
KPD2 200118Z 34003KT 04/M05 A3025 RMK A01 T00381046  RH  054%=      5-min Rain = 0
KPD2 200119Z 34002KT 03/M05 A3025 RMK A01 T00341050  RH  054%=      5-min Rain = 0
KPD2 200120Z 34000KT 03/M05 A3025 RMK A01 T00311051  RH  055%=      5-min Rain = 0
KPD2 200121Z 34000KT 03/M05 A3025 RMK A01 T00301050  RH  056%=      5-min Rain = 0
KPD2 200122Z 34001KT 03/M05 A3025 RMK A01 T00291046  RH  058%=      5-min Rain = 0
KPD2 200123Z 17001KT 03/M04 A3025 RMK A01 T00301044  RH  058%=      5-min Rain = 0
KPD2 200124Z 14002KT 03/M04 A3024 RMK A01 T00311044  RH  057%=      5-min Rain = 0
KPD2 200125Z 11002KT 03/M05 A3024 RMK A01 T00311046  RH  057%=      5-min Rain = 0
KPD2 200126Z 11002KT 03/M05 A3024 RMK A01 T00301046  RH  057%=      5-min Rain = 0
KPD2 200127Z 11002KT 03/M05 A3024 RMK A01 T00301045  RH  058%=      5-min Rain = 0
KPD2 200128Z 11002KT 03/M05 A3024 RMK A01 T00311045  RH  057%=      5-min Rain = 0
KPD2 200129Z 13002KT 03/M05 A3024 RMK A01 T00321045  RH  057%=      5-min Rain = 0
KPD2 200130Z 14001KT 03/M04 A3024 RMK A01 T00331044  RH  057%=      5-min Rain = 0
KPD2 200131Z 16002KT 03/M05 A3024 RMK A01 T00331045  RH  057%=      5-min Rain = 0
KPD2 200132Z 20003KT 03/M05 A3024 RMK A01 T00321046  RH  056%=      5-min Rain = 0
KPD2 200133Z 20004KT 03/M05 A3024 RMK A01 T00291048  RH  057%=      5-min Rain = 0
KPD2 200134Z 19004KT 03/M05 A3024 RMK A01 T00261049  RH  058%=      5-min Rain = 0
KPD2 200135Z 19004KT 02/M05 A3024 RMK A01 T00241048  RH  059%=      5-min Rain = 0
KPD2 200136Z 18003KT 02/M05 A3025 RMK A01 T00241047  RH  059%=      5-min Rain = 0
KPD2 200137Z 18002KT 02/M05 A3025 RMK A01 T00241047  RH  060%=      5-min Rain = 0
KPD2 200138Z 14000KT 02/M05 A3025 RMK A01 T00221048  RH  060%=      5-min Rain = 0
KPD2 200139Z 07001KT 02/M05 A3025 RMK A01 T00211049  RH  060%=      5-min Rain = 0
KPD2 200140Z 06002KT 02/M05 A3025 RMK A01 T00201048  RH  061%=      5-min Rain = 0
KPD2 200141Z 08001KT 02/M05 A3025 RMK A01 T00211046  RH  061%=      5-min Rain = 0
KPD2 200142Z 09001KT 02/M05 A3025 RMK A01 T00221046  RH  061%=      5-min Rain = 0
KPD2 200143Z 09001KT 02/M05 A3025 RMK A01 T00231045  RH  060%=      5-min Rain = 0
KPD2 200144Z 02001KT 02/M05 A3025 RMK A01 T00241046  RH  060%=      5-min Rain = 0
KPD2 200145Z 36003KT 02/M05 A3025 RMK A01 T00241046  RH  060%=      5-min Rain = 0
KPD2 200146Z 34003KT 02/M05 A3025 RMK A01 T00241046  RH  060%=      5-min Rain = 0
KPD2 200147Z 34003KT 02/M05 A3025 RMK A01 T00241047  RH  059%=      5-min Rain = 0
KPD2 200148Z 33003KT 02/M05 A3025 RMK A01 T00221049  RH  059%=      5-min Rain = 0
KPD2 200149Z 32003KT 02/M05 A3025 RMK A01 T00211049  RH  060%=      5-min Rain = 0
KPD2 200150Z 32002KT 02/M05 A3025 RMK A01 T00201049  RH  060%=      5-min Rain = 0
KPD2 200151Z 32001KT 02/M05 A3025 RMK A01 T00191049  RH  061%=      5-min Rain = 0
KPD2 200152Z 21002KT 02/M05 A3025 RMK A01 T00181049  RH  061%=      5-min Rain = 0
KPD2 200153Z 19003KT 02/M05 A3025 RMK A01 T00181048  RH  062%=      5-min Rain = 0
KPD2 200154Z 18004KT 02/M05 A3025 RMK A01 T00181047  RH  062%=      5-min Rain = 0
KPD2 200155Z 18003KT 02/M05 A3026 RMK A01 T00191046  RH  062%=      5-min Rain = 0
KPD2 200156Z 17003KT 02/M05 A3026 RMK A01 T00211046  RH  061%=      5-min Rain = 0
KPD2 200157Z 16002KT 02/M05 A3026 RMK A01 T00221046  RH  061%=      5-min Rain = 0
KPD2 200158Z 14001KT 02/M05 A3026 RMK A01 T00211048  RH  060%=      5-min Rain = 0
KPD2 200159Z 14001KT 02/M05 A3026 RMK A01 T00211047  RH  061%=      5-min Rain = 0
KPD2 200200Z 14000KT 02/M05 A3026 RMK A01 T00201048  RH  061%=      5-min Rain = 0
KPD2 200201Z 13001KT 02/M05 A3026 RMK A01 T00171052  RH  060%=      5-min Rain = 0
KPD2 200202Z 33002KT 01/M05 A3027 RMK A01 T00141053  RH  061%=      5-min Rain = 0
KPD2 200203Z 33003KT 01/M05 A3027 RMK A01 T00121053  RH  062%=      5-min Rain = 0
KPD2 200204Z 34003KT 01/M05 A3027 RMK A01 T00101053  RH  063%=      5-min Rain = 0
KPD2 200205Z 36003KT 01/M05 A3027 RMK A01 T00091052  RH  063%=      5-min Rain = 0
KPD2 200206Z 01003KT 01/M05 A3027 RMK A01 T00091051  RH  064%=      5-min Rain = 0
KPD2 200207Z 02003KT 01/M05 A3027 RMK A01 T00101049  RH  065%=      5-min Rain = 0
KPD2 200208Z 02003KT 01/M05 A3027 RMK A01 T00121047  RH  065%=      5-min Rain = 0
KPD2 200209Z 03002KT 01/M05 A3027 RMK A01 T00141046  RH  065%=      5-min Rain = 0
KPD2 200210Z 02001KT 02/M05 A3027 RMK A01 T00151046  RH  064%=      5-min Rain = 0
KPD2 200211Z 02001KT 02/M05 A3027 RMK A01 T00161045  RH  064%=      5-min Rain = 0
KPD2 200212Z 00000KT 02/M05 A3027 RMK A01 T00171045  RH  063%=      5-min Rain = 0
KPD2 200213Z 22002KT 02/M05 A3027 RMK A01 T00161048  RH  062%=      5-min Rain = 0
KPD2 200214Z 22003KT 01/M05 A3027 RMK A01 T00141052  RH  062%=      5-min Rain = 0
KPD2 200215Z 22004KT 01/M05 A3027 RMK A01 T00111053  RH  062%=      5-min Rain = 0
KPD2 200216Z 20003KT 01/M05 A3028 RMK A01 T00101052  RH  063%=      5-min Rain = 0
KPD2 200217Z 18002KT 01/M05 A3028 RMK A01 T00081052  RH  064%=      5-min Rain = 0
KPD2 200218Z 17002KT 01/M05 A3028 RMK A01 T00071052  RH  065%=      5-min Rain = 0
KPD2 200219Z 16002KT 01/M05 A3028 RMK A01 T00071052  RH  065%=      5-min Rain = 0
KPD2 200220Z 11002KT 01/M05 A3028 RMK A01 T00051052  RH  065%=      5-min Rain = 0
KPD2 200221Z 09001KT 01/M05 A3028 RMK A01 T00051051  RH  066%=      5-min Rain = 0
KPD2 200222Z 06002KT 01/M05 A3028 RMK A01 T00061049  RH  066%=      5-min Rain = 0
KPD2 200223Z 02002KT 01/M05 A3028 RMK A01 T00081047  RH  066%=      5-min Rain = 0
KPD2 200224Z 02004KT 01/M05 A3028 RMK A01 T00101047  RH  066%=      5-min Rain = 0
KPD2 200225Z 02002KT 01/M05 A3028 RMK A01 T00101048  RH  065%=      5-min Rain = 0
KPD2 200226Z 01002KT 01/M05 A3028 RMK A01 T00101047  RH  065%=      5-min Rain = 0
KPD2 200227Z 00001KT 01/M05 A3028 RMK A01 T00121047  RH  065%=      5-min Rain = 0
KPD2 200228Z 00001KT 01/M05 A3028 RMK A01 T00131046  RH  065%=      5-min Rain = 0
KPD2 200229Z 00001KT 01/M05 A3028 RMK A01 T00141046  RH  064%=      5-min Rain = 0
KPD2 200230Z 00000KT 02/M05 A3028 RMK A01 T00151046  RH  064%=      5-min Rain = 0
KPD2 200231Z 00000KT 02/M05 A3028 RMK A01 T00161046  RH  064%=      5-min Rain = 0
KPD2 200232Z 00000KT 02/M05 A3028 RMK A01 T00161046  RH  063%=      5-min Rain = 0
KPD2 200233Z 00000KT 02/M05 A3028 RMK A01 T00161049  RH  062%=      5-min Rain = 0
KPD2 200234Z 00001KT 01/M05 A3028 RMK A01 T00141050  RH  062%=      5-min Rain = 0
KPD2 200235Z 02001KT 01/M05 A3028 RMK A01 T00121051  RH  063%=      5-min Rain = 0
KPD2 200236Z 02001KT 01/M05 A3027 RMK A01 T00101052  RH  063%=      5-min Rain = 0
KPD2 200237Z 00000KT 01/M05 A3027 RMK A01 T00091052  RH  064%=      5-min Rain = 0
KPD2 200238Z 05001KT 01/M05 A3027 RMK A01 T00081052  RH  064%=      5-min Rain = 0
KPD2 200239Z 20003KT 01/M05 A3027 RMK A01 T00081051  RH  065%=      5-min Rain = 0
KPD2 200240Z 20003KT 01/M05 A3027 RMK A01 T00071051  RH  065%=      5-min Rain = 0
KPD2 200241Z 18002KT 01/M05 A3028 RMK A01 T00061051  RH  066%=      5-min Rain = 0
KPD2 200242Z 19001KT 01/M05 A3028 RMK A01 T00051051  RH  066%=      5-min Rain = 0
KPD2 200243Z 14000KT 00/M05 A3028 RMK A01 T00031052  RH  066%=      5-min Rain = 0
KPD2 200244Z 00000KT 00/M05 A3028 RMK A01 T00031052  RH  067%=      5-min Rain = 0
KPD2 200245Z 08001KT 00/M05 A3028 RMK A01 T00021051  RH  068%=      5-min Rain = 0
KPD2 200246Z 08000KT 00/M05 A3028 RMK A01 T00031050  RH  068%=      5-min Rain = 0
KPD2 200247Z 33001KT 00/M05 A3028 RMK A01 T00041050  RH  067%=      5-min Rain = 0
KPD2 200248Z 35002KT 00/M05 A3028 RMK A01 T00041050  RH  067%=      5-min Rain = 0
KPD2 200249Z 35002KT 00/M05 A3028 RMK A01 T00031052  RH  067%=      5-min Rain = 0
KPD2 200250Z 35002KT 00/M05 A3028 RMK A01 T00021052  RH  067%=      5-min Rain = 0
KPD2 200251Z 34001KT 00/M05 A3028 RMK A01 T00011052  RH  068%=      5-min Rain = 0
KPD2 200252Z 34000KT 00/M05 A3027 RMK A01 T00011051  RH  068%=      5-min Rain = 0
KPD2 200253Z 25001KT 00/M05 A3027 RMK A01 T00011051  RH  068%=      5-min Rain = 0
KPD2 200254Z 22003KT 00/M05 A3027 RMK A01 T00011051  RH  068%=      5-min Rain = 0
KPD2 200255Z 22002KT 00/05 A3027 RMK A01 T00000-52  RH  068%=      5-min Rain = 0
KPD2 200256Z 22001KT M00/M05 A3027 RMK A01 T10011053  RH  068%=      5-min Rain = 0
KPD2 200257Z 21000KT M00/M05 A3027 RMK A01 T10021053  RH  068%=      5-min Rain = 0
KPD2 200258Z 00000KT M00/M05 A3027 RMK A01 T10031053  RH  069%=      5-min Rain = 0
KPD2 200259Z 00000KT M00/M05 A3027 RMK A01 T10031052  RH  070%=      5-min Rain = 0
KPD2 200300Z 21000KT M00/M05 A3027 RMK A01 T10021050  RH  070%=      5-min Rain = 0
KPD2 200301Z 22001KT 00/05 A3027 RMK A01 T00000-48  RH  070%=      5-min Rain = 0
KPD2 200302Z 22001KT 00/M05 A3027 RMK A01 T00021048  RH  069%=      5-min Rain = 0
KPD2 200303Z 35001KT 00/M05 A3027 RMK A01 T00031048  RH  069%=      5-min Rain = 0
KPD2 200304Z 35002KT 00/M05 A3028 RMK A01 T00031049  RH  068%=      5-min Rain = 0
KPD2 200305Z 35002KT 00/M05 A3028 RMK A01 T00021051  RH  068%=      5-min Rain = 0
KPD2 200306Z 35002KT 00/M05 A3027 RMK A01 T00011051  RH  068%=      5-min Rain = 0
KPD2 200307Z 01001KT 00/05 A3027 RMK A01 T00000-51  RH  068%=      5-min Rain = 0
KPD2 200308Z 01001KT 00/05 A3026 RMK A01 T00000-51  RH  069%=      5-min Rain = 0
KPD2 200309Z 01000KT 00/05 A3026 RMK A01 T00000-50  RH  069%=      5-min Rain = 0
KPD2 200310Z 01000KT 00/05 A3026 RMK A01 T00-00-50  RH  069%=      5-min Rain = 0
KPD2 200311Z 01001KT 00/M05 A3026 RMK A01 T00011049  RH  069%=      5-min Rain = 0
KPD2 200312Z 01001KT 00/M05 A3027 RMK A01 T00021048  RH  069%=      5-min Rain = 0
KPD2 200313Z 01000KT 00/M05 A3026 RMK A01 T00021048  RH  069%=      5-min Rain = 0
KPD2 200314Z 00000KT 00/M05 A3026 RMK A01 T00021049  RH  068%=      5-min Rain = 0
KPD2 200315Z 26001KT 00/M05 A3026 RMK A01 T00021049  RH  068%=      5-min Rain = 0
KPD2 200316Z 24002KT 00/M05 A3026 RMK A01 T00031049  RH  068%=      5-min Rain = 0
KPD2 200317Z 24003KT 00/M05 A3026 RMK A01 T00021050  RH  068%=      5-min Rain = 0
KPD2 200318Z 24003KT 00/M05 A3027 RMK A01 T00011051  RH  068%=      5-min Rain = 0
KPD2 200319Z 25003KT 00/M05 A3027 RMK A01 T00011051  RH  068%=      5-min Rain = 0
KPD2 200320Z 25002KT M00/M05 A3027 RMK A01 T10011053  RH  068%=      5-min Rain = 0
KPD2 200321Z 25001KT M00/M05 A3027 RMK A01 T10021054  RH  068%=      5-min Rain = 0
KPD2 200322Z 25000KT M00/M05 A3027 RMK A01 T10041054  RH  069%=      5-min Rain = 0
KPD2 200323Z 31000KT M00/M05 A3027 RMK A01 T10041053  RH  070%=      5-min Rain = 0
KPD2 200324Z 00000KT M00/M05 A3027 RMK A01 T10041052  RH  070%=      5-min Rain = 0
KPD2 200325Z 31001KT M00/M05 A3027 RMK A01 T10041051  RH  070%=      5-min Rain = 0
KPD2 200326Z 31001KT M01/M05 A3026 RMK A01 T10051053  RH  070%=      5-min Rain = 0
KPD2 200327Z 31002KT M01/M06 A3026 RMK A01 T10061055  RH  070%=      5-min Rain = 0
KPD2 200328Z 31001KT M01/M06 A3026 RMK A01 T10081057  RH  069%=      5-min Rain = 0
KPD2 200329Z 31000KT M01/M06 A3026 RMK A01 T10091058  RH  070%=      5-min Rain = 0
KPD2 200330Z 29001KT M01/M06 A3026 RMK A01 T10101057  RH  070%=      5-min Rain = 0
KPD2 200331Z 29001KT M01/M06 A3026 RMK A01 T10111058  RH  071%=      5-min Rain = 0
KPD2 200332Z 26001KT M01/M06 A3026 RMK A01 T10111056  RH  071%=      5-min Rain = 0
KPD2 200333Z 24002KT M01/M06 A3027 RMK A01 T10111055  RH  072%=      5-min Rain = 0
KPD2 200334Z 24002KT M01/M05 A3027 RMK A01 T10111054  RH  073%=      5-min Rain = 0
KPD2 200335Z 24001KT M01/M05 A3027 RMK A01 T10111054  RH  073%=      5-min Rain = 0
KPD2 200336Z 26000KT M01/M05 A3027 RMK A01 T10111054  RH  073%=      5-min Rain = 0
KPD2 200337Z 33001KT M01/M05 A3027 RMK A01 T10101053  RH  073%=      5-min Rain = 0
KPD2 200338Z 35002KT M01/M05 A3027 RMK A01 T10101053  RH  073%=      5-min Rain = 0
KPD2 200339Z 34002KT M01/M05 A3027 RMK A01 T10101053  RH  073%=      5-min Rain = 0
KPD2 200340Z 34001KT M01/M05 A3027 RMK A01 T10101052  RH  073%=      5-min Rain = 0
KPD2 200341Z 35001KT M01/M05 A3027 RMK A01 T10101052  RH  073%=      5-min Rain = 0
KPD2 200342Z 34002KT M01/M05 A3027 RMK A01 T10101053  RH  073%=      5-min Rain = 0
KPD2 200343Z 32002KT M01/M05 A3027 RMK A01 T10101054  RH  072%=      5-min Rain = 0
KPD2 200344Z 31002KT M01/M06 A3027 RMK A01 T10111055  RH  072%=      5-min Rain = 0
KPD2 200345Z 30002KT M01/M05 A3027 RMK A01 T10111054  RH  073%=      5-min Rain = 0
KPD2 200346Z 30001KT M01/M05 A3027 RMK A01 T10111053  RH  073%=      5-min Rain = 0
KPD2 200347Z 31001KT M01/M05 A3026 RMK A01 T10111053  RH  073%=      5-min Rain = 0
KPD2 200348Z 33000KT M01/M05 A3026 RMK A01 T10111052  RH  073%=      5-min Rain = 0
KPD2 200349Z 03001KT M01/M05 A3026 RMK A01 T10101051  RH  073%=      5-min Rain = 0
KPD2 200350Z 04001KT M01/M05 A3025 RMK A01 T10091051  RH  073%=      5-min Rain = 0
KPD2 200351Z 04001KT M01/M05 A3025 RMK A01 T10081051  RH  073%=      5-min Rain = 0
KPD2 200352Z 04000KT M01/M05 A3025 RMK A01 T10071050  RH  073%=      5-min Rain = 0
KPD2 200353Z 00000KT M01/M05 A3025 RMK A01 T10061049  RH  073%=      5-min Rain = 0
KPD2 200354Z 00000KT M01/M05 A3026 RMK A01 T10061050  RH  072%=      5-min Rain = 0
KPD2 200355Z 31001KT M01/M05 A3026 RMK A01 T10061050  RH  072%=      5-min Rain = 0
KPD2 200356Z 31001KT M01/M05 A3026 RMK A01 T10051051  RH  071%=      5-min Rain = 0
KPD2 200357Z 31001KT M01/M05 A3026 RMK A01 T10061052  RH  071%=      5-min Rain = 0
KPD2 200358Z 30001KT M01/M05 A3026 RMK A01 T10061052  RH  071%=      5-min Rain = 0
KPD2 200359Z 26002KT M01/M05 A3026 RMK A01 T10071053  RH  071%=      5-min Rain = 0
KPD2 200400Z 26001KT M01/M05 A3027 RMK A01 T10081053  RH  071%=      5-min Rain = 0
KPD2 200401Z 26001KT M01/M05 A3027 RMK A01 T10081053  RH  072%=      5-min Rain = 0
KPD2 200402Z 26000KT M01/M05 A3027 RMK A01 T10081052  RH  072%=      5-min Rain = 0
KPD2 200403Z 26000KT M01/M05 A3027 RMK A01 T10081052  RH  072%=      5-min Rain = 0
KPD2 200404Z 00000KT M01/M05 A3027 RMK A01 T10081051  RH  073%=      5-min Rain = 0
KPD2 200405Z 00000KT M01/M05 A3026 RMK A01 T10091051  RH  073%=      5-min Rain = 0
KPD2 200406Z 26000KT M01/M05 A3026 RMK A01 T10081050  RH  073%=      5-min Rain = 0
KPD2 200407Z 26002KT M01/M05 A3026 RMK A01 T10071050  RH  073%=      5-min Rain = 0
KPD2 200408Z 26002KT M01/M05 A3026 RMK A01 T10071050  RH  073%=      5-min Rain = 0
KPD2 200409Z 26002KT M01/M05 A3026 RMK A01 T10071050  RH  072%=      5-min Rain = 0
KPD2 200410Z 26002KT M01/M05 A3026 RMK A01 T10071051  RH  072%=      5-min Rain = 0
KPD2 200411Z 26001KT M01/M05 A3026 RMK A01 T10071052  RH  072%=      5-min Rain = 0
KPD2 200412Z 26000KT M01/M05 A3026 RMK A01 T10081053  RH  072%=      5-min Rain = 0
KPD2 200413Z 00000KT M01/M05 A3026 RMK A01 T10091053  RH  072%=      5-min Rain = 0
KPD2 200414Z 26000KT M01/M05 A3025 RMK A01 T10091053  RH  072%=      5-min Rain = 0
KPD2 200415Z 26000KT M01/M05 A3026 RMK A01 T10101052  RH  073%=      5-min Rain = 0
KPD2 200416Z 00000KT M01/M05 A3026 RMK A01 T10101052  RH  073%=      5-min Rain = 0
KPD2 200417Z 00000KT M01/M05 A3026 RMK A01 T10111053  RH  073%=      5-min Rain = 0
KPD2 200418Z 26000KT M01/M05 A3026 RMK A01 T10111053  RH  073%=      5-min Rain = 0
KPD2 200419Z 26000KT M01/M05 A3026 RMK A01 T10111052  RH  074%=      5-min Rain = 0
KPD2 200420Z 00000KT M01/M05 A3026 RMK A01 T10111052  RH  074%=      5-min Rain = 0
KPD2 200421Z 00000KT M01/M05 A3026 RMK A01 T10111052  RH  074%=      5-min Rain = 0
KPD2 200422Z 00000KT M01/M05 A3026 RMK A01 T10111051  RH  074%=      5-min Rain = 0
KPD2 200423Z 00000KT M01/M05 A3026 RMK A01 T10111051  RH  074%=      5-min Rain = 0
KPD2 200424Z 00000KT M01/M05 A3026 RMK A01 T10111051  RH  074%=      5-min Rain = 0
KPD2 200425Z 00000KT M01/M05 A3026 RMK A01 T10111051  RH  074%=      5-min Rain = 0
KPD2 200426Z 00000KT M01/M05 A3026 RMK A01 T10111052  RH  074%=      5-min Rain = 0
KPD2 200427Z 00000KT M01/M05 A3026 RMK A01 T10111051  RH  074%=      5-min Rain = 0
KPD2 200428Z 00000KT M01/M05 A3026 RMK A01 T10111052  RH  074%=      5-min Rain = 0
KPD2 200429Z 26000KT M01/M05 A3026 RMK A01 T10111053  RH  073%=      5-min Rain = 0
KPD2 200430Z 26000KT M01/M06 A3026 RMK A01 T10131055  RH  073%=      5-min Rain = 0
KPD2 200431Z 26000KT M01/M06 A3026 RMK A01 T10141056  RH  073%=      5-min Rain = 0
KPD2 200432Z 26001KT M01/M06 A3026 RMK A01 T10141056  RH  073%=      5-min Rain = 0
KPD2 200433Z 26001KT M02/M06 A3026 RMK A01 T10151056  RH  074%=      5-min Rain = 0
KPD2 200434Z 26000KT M02/M06 A3026 RMK A01 T10161056  RH  074%=      5-min Rain = 0
KPD2 200435Z 26000KT M02/M06 A3026 RMK A01 T10171057  RH  074%=      5-min Rain = 0
KPD2 200436Z 26000KT M02/M06 A3026 RMK A01 T10181057  RH  075%=      5-min Rain = 0
KPD2 200437Z 26000KT M02/M06 A3026 RMK A01 T10191057  RH  075%=      5-min Rain = 0
KPD2 200438Z 00000KT M02/M06 A3026 RMK A01 T10201057  RH  076%=      5-min Rain = 0
KPD2 200439Z 00000KT M02/M06 A3026 RMK A01 T10201057  RH  076%=      5-min Rain = 0
KPD2 200440Z 00000KT M02/M06 A3026 RMK A01 T10211058  RH  076%=      5-min Rain = 0
KPD2 200441Z 00000KT M02/M06 A3026 RMK A01 T10211057  RH  076%=      5-min Rain = 0
KPD2 200442Z 00000KT M02/M06 A3026 RMK A01 T10211056  RH  077%=      5-min Rain = 0
KPD2 200443Z 00000KT M02/M06 A3027 RMK A01 T10211055  RH  078%=      5-min Rain = 0
KPD2 200444Z 00000KT M02/M06 A3027 RMK A01 T10211055  RH  078%=      5-min Rain = 0
KPD2 200445Z 26000KT M02/M06 A3027 RMK A01 T10211055  RH  077%=      5-min Rain = 0
KPD2 200446Z 26000KT M02/M05 A3027 RMK A01 T10201054  RH  077%=      5-min Rain = 0
KPD2 200447Z 00000KT M02/M06 A3027 RMK A01 T10201055  RH  077%=      5-min Rain = 0
KPD2 200448Z 00000KT M02/M05 A3027 RMK A01 T10201054  RH  077%=      5-min Rain = 0
KPD2 200449Z 27000KT M02/M05 A3027 RMK A01 T10201054  RH  078%=      5-min Rain = 0
KPD2 200450Z 33002KT M02/M05 A3027 RMK A01 T10201054  RH  078%=      5-min Rain = 0
KPD2 200451Z 34003KT M02/M06 A3027 RMK A01 T10211055  RH  078%=      5-min Rain = 0
KPD2 200452Z 34003KT M02/M06 A3027 RMK A01 T10211056  RH  077%=      5-min Rain = 0
KPD2 200453Z 31002KT M02/M06 A3027 RMK A01 T10211055  RH  078%=      5-min Rain = 0
KPD2 200454Z 29003KT M02/M06 A3027 RMK A01 T10211055  RH  078%=      5-min Rain = 0
KPD2 200455Z 26002KT M02/M06 A3027 RMK A01 T10221057  RH  077%=      5-min Rain = 0
KPD2 200456Z 26002KT M02/M06 A3027 RMK A01 T10221058  RH  076%=      5-min Rain = 0
KPD2 200457Z 26002KT M02/M06 A3027 RMK A01 T10231059  RH  076%=      5-min Rain = 0
KPD2 200458Z 25003KT M02/M06 A3027 RMK A01 T10241059  RH  077%=      5-min Rain = 0
KPD2 200459Z 25003KT M03/M06 A3027 RMK A01 T10251060  RH  077%=      5-min Rain = 0
KPD2 200500Z 26002KT M03/M06 A3027 RMK A01 T10261061  RH  077%=      5-min Rain = 0
KPD2 200501Z 31002KT M03/M06 A3027 RMK A01 T10271062  RH  077%=      5-min Rain = 0
KPD2 200502Z 35003KT M03/M06 A3027 RMK A01 T10271061  RH  078%=      5-min Rain = 0
KPD2 200503Z 35003KT M03/M06 A3027 RMK A01 T10271060  RH  079%=      5-min Rain = 0
KPD2 200504Z 35004KT M03/M06 A3027 RMK A01 T10271059  RH  079%=      5-min Rain = 0
KPD2 200505Z 36003KT M03/M06 A3027 RMK A01 T10271058  RH  079%=      5-min Rain = 0
KPD2 200506Z 35002KT M03/M06 A3027 RMK A01 T10271058  RH  079%=      5-min Rain = 0
KPD2 200507Z 34002KT M03/M06 A3027 RMK A01 T10271058  RH  079%=      5-min Rain = 0
KPD2 200508Z 34002KT M03/M06 A3027 RMK A01 T10271058  RH  079%=      5-min Rain = 0
KPD2 200509Z 33002KT M03/M06 A3027 RMK A01 T10271058  RH  079%=      5-min Rain = 0
KPD2 200510Z 33002KT M03/M06 A3028 RMK A01 T10271058  RH  079%=      5-min Rain = 0
KPD2 200511Z 33001KT M03/M06 A3028 RMK A01 T10271059  RH  079%=      5-min Rain = 0
KPD2 200512Z 27002KT M03/M06 A3028 RMK A01 T10281060  RH  078%=      5-min Rain = 0
KPD2 200513Z 26003KT M03/M06 A3028 RMK A01 T10281060  RH  078%=      5-min Rain = 0
KPD2 200514Z 26003KT M03/M06 A3028 RMK A01 T10281061  RH  078%=      5-min Rain = 0
KPD2 200515Z 25002KT M03/M06 A3028 RMK A01 T10291062  RH  078%=      5-min Rain = 0
KPD2 200516Z 25001KT M03/M06 A3028 RMK A01 T10301063  RH  078%=      5-min Rain = 0
KPD2 200517Z 25001KT M03/M06 A3028 RMK A01 T10301061  RH  079%=      5-min Rain = 0
KPD2 200518Z 25002KT M03/M06 A3028 RMK A01 T10301060  RH  080%=      5-min Rain = 0
KPD2 200519Z 25000KT M03/M06 A3028 RMK A01 T10291059  RH  080%=      5-min Rain = 0
KPD2 200520Z 00000KT M03/M06 A3027 RMK A01 T10281058  RH  080%=      5-min Rain = 0
KPD2 200521Z 00000KT M03/M06 A3027 RMK A01 T10281058  RH  080%=      5-min Rain = 0
KPD2 200522Z 00000KT M03/M06 A3027 RMK A01 T10271058  RH  079%=      5-min Rain = 0
KPD2 200523Z 00000KT M03/M06 A3027 RMK A01 T10261057  RH  079%=      5-min Rain = 0
KPD2 200524Z 00000KT M03/M06 A3028 RMK A01 T10261057  RH  079%=      5-min Rain = 0
KPD2 200525Z 27000KT M03/M06 A3028 RMK A01 T10261057  RH  079%=      5-min Rain = 0
KPD2 200526Z 28000KT M03/M06 A3028 RMK A01 T10251057  RH  079%=      5-min Rain = 0
KPD2 200527Z 33000KT M03/M06 A3028 RMK A01 T10251057  RH  079%=      5-min Rain = 0
KPD2 200528Z 34001KT M03/M06 A3028 RMK A01 T10251057  RH  079%=      5-min Rain = 0
KPD2 200529Z 34001KT M03/M06 A3028 RMK A01 T10261057  RH  079%=      5-min Rain = 0
KPD2 200530Z 34001KT M03/M06 A3028 RMK A01 T10261057  RH  079%=      5-min Rain = 0
KPD2 200531Z 34002KT M03/M06 A3028 RMK A01 T10251056  RH  079%=      5-min Rain = 0
KPD2 200532Z 35002KT M02/M06 A3028 RMK A01 T10241055  RH  079%=      5-min Rain = 0
KPD2 200533Z 36003KT M02/M06 A3029 RMK A01 T10241055  RH  079%=      5-min Rain = 0
KPD2 200534Z 01003KT M02/M05 A3029 RMK A01 T10231054  RH  079%=      5-min Rain = 0
KPD2 200535Z 01003KT M02/M05 A3029 RMK A01 T10231054  RH  079%=      5-min Rain = 0
KPD2 200536Z 00002KT M02/M05 A3029 RMK A01 T10231054  RH  079%=      5-min Rain = 0
KPD2 200537Z 35001KT M02/M05 A3029 RMK A01 T10231054  RH  079%=      5-min Rain = 0
KPD2 200538Z 00000KT M02/M05 A3029 RMK A01 T10231054  RH  079%=      5-min Rain = 0
KPD2 200539Z 00000KT M02/M06 A3029 RMK A01 T10231055  RH  079%=      5-min Rain = 0
KPD2 200540Z 29000KT M02/M06 A3029 RMK A01 T10231055  RH  079%=      5-min Rain = 0
KPD2 200541Z 29001KT M02/M06 A3029 RMK A01 T10231055  RH  078%=      5-min Rain = 0
KPD2 200542Z 29000KT M02/M06 A303 RMK A01 T10231055  RH  078%=      5-min Rain = 0
KPD2 200543Z 29000KT M02/M05 A303 RMK A01 T10221054  RH  079%=      5-min Rain = 0
KPD2 200544Z 00000KT M02/M05 A303 RMK A01 T10221054  RH  079%=      5-min Rain = 0
KPD2 200545Z 00000KT M02/M05 A303 RMK A01 T10221054  RH  079%=      5-min Rain = 0
KPD2 200546Z 00000KT M02/M05 A303 RMK A01 T10221054  RH  079%=      5-min Rain = 0
KPD2 200547Z 00000KT M02/M05 A303 RMK A01 T10211053  RH  079%=      5-min Rain = 0
KPD2 200548Z 32000KT M02/M05 A3029 RMK A01 T10201052  RH  079%=      5-min Rain = 0
KPD2 200549Z 08002KT M02/M05 A3029 RMK A01 T10191051  RH  079%=      5-min Rain = 0
KPD2 200550Z 09001KT M02/M05 A3028 RMK A01 T10181051  RH  078%=      5-min Rain = 0
KPD2 200551Z 12003KT M02/M05 A3028 RMK A01 T10171051  RH  078%=      5-min Rain = 0
KPD2 200552Z 12003KT M02/M05 A3028 RMK A01 T10171052  RH  077%=      5-min Rain = 0
KPD2 200553Z 12002KT M02/M05 A3029 RMK A01 T10171053  RH  076%=      5-min Rain = 0
KPD2 200554Z 12002KT M02/M05 A3029 RMK A01 T10171054  RH  076%=      5-min Rain = 0
KPD2 200555Z 12001KT M02/M06 A3029 RMK A01 T10181056  RH  075%=      5-min Rain = 0
KPD2 200556Z 12000KT M02/M06 A3029 RMK A01 T10191057  RH  075%=      5-min Rain = 0
KPD2 200557Z 00000KT M02/M06 A3029 RMK A01 T10211059  RH  075%=      5-min Rain = 0
KPD2 200558Z 12001KT M02/M06 A3029 RMK A01 T10231061  RH  075%=      5-min Rain = 0
KPD2 200559Z 12002KT M02/M06 A3029 RMK A01 T10241061  RH  076%=      5-min Rain = 0
KPD2 200600Z 12001KT M03/M06 A3029 RMK A01 T10251061  RH  077%=      5-min Rain = 0

Page generated in 0.0364 seconds.